Observation data for Sierra Blanca on 10/18/2019      Previous  Date       Current Mesonet Observations  Soil Data  Daily Summary Page  Observations in Plain Language
KSB1 180500Z 18006KT 19/11 A2994 RMK A01 T01920105  RH  057%=      5-min Rain = 0
KSB1 180501Z 17007KT 19/11 A2994 RMK A01 T01910106  RH  057%=      5-min Rain = 0
KSB1 180502Z 17006KT 19/11 A2994 RMK A01 T01910105  RH  058%=      5-min Rain = 0
KSB1 180503Z 18007KT 19/11 A2994 RMK A01 T01910105  RH  058%=      5-min Rain = 0
KSB1 180504Z 18006KT 19/11 A2994 RMK A01 T01910106  RH  058%=      5-min Rain = 0
KSB1 180505Z 18006KT 19/11 A2994 RMK A01 T01910106  RH  058%=      5-min Rain = 0
KSB1 180506Z 18006KT 19/11 A2994 RMK A01 T01910106  RH  058%=      5-min Rain = 0
KSB1 180507Z 18006KT 19/11 A2994 RMK A01 T01900106  RH  058%=      5-min Rain = 0
KSB1 180508Z 18005KT 19/11 A2994 RMK A01 T01900106  RH  058%=      5-min Rain = 0
KSB1 180509Z 18006G11KT 19/11 A2994 RMK A01 T01900106  RH  058%=      5-min Rain = 0
KSB1 180510Z 18007KT 19/11 A2994 RMK A01 T01900106  RH  058%=      5-min Rain = 0
KSB1 180511Z 19006KT 19/11 A2994 RMK A01 T01900107  RH  058%=      5-min Rain = 0
KSB1 180512Z 19006KT 19/11 A2994 RMK A01 T01890107  RH  059%=      5-min Rain = 0
KSB1 180513Z 19007KT 19/11 A2994 RMK A01 T01890107  RH  059%=      5-min Rain = 0
KSB1 180514Z 19008KT 19/11 A2994 RMK A01 T01890107  RH  059%=      5-min Rain = 0
KSB1 180515Z 18009KT 19/11 A2994 RMK A01 T01900107  RH  059%=      5-min Rain = 0
KSB1 180516Z 19010KT 19/11 A2994 RMK A01 T01910107  RH  058%=      5-min Rain = 0
KSB1 180517Z 19008KT 19/11 A2994 RMK A01 T01910107  RH  058%=      5-min Rain = 0
KSB1 180518Z 20007KT 19/11 A2994 RMK A01 T01920108  RH  058%=      5-min Rain = 0
KSB1 180519Z 20008KT 19/11 A2994 RMK A01 T01910107  RH  058%=      5-min Rain = 0
KSB1 180520Z 20007KT 19/11 A2994 RMK A01 T01900108  RH  059%=      5-min Rain = 0
KSB1 180521Z 21008KT 19/11 A2994 RMK A01 T01890108  RH  059%=      5-min Rain = 0
KSB1 180522Z 19010KT 19/11 A2994 RMK A01 T01890108  RH  059%=      5-min Rain = 0
KSB1 180523Z 20009KT 19/11 A2994 RMK A01 T01890109  RH  059%=      5-min Rain = 0
KSB1 180524Z 20009KT 19/11 A2994 RMK A01 T01900109  RH  059%=      5-min Rain = 0
KSB1 180525Z 19007KT 19/11 A2994 RMK A01 T01890108  RH  059%=      5-min Rain = 0
KSB1 180526Z 19011KT 19/11 A2994 RMK A01 T01900109  RH  059%=      5-min Rain = 0
KSB1 180527Z 20009KT 19/11 A2994 RMK A01 T01910109  RH  059%=      5-min Rain = 0
KSB1 180528Z 20012KT 19/11 A2994 RMK A01 T01920110  RH  059%=      5-min Rain = 0
KSB1 180529Z 20010KT 19/11 A2994 RMK A01 T01920110  RH  059%=      5-min Rain = 0
KSB1 180530Z 20011G16KT 19/11 A2994 RMK A01 T01930110  RH  059%=      5-min Rain = 0
KSB1 180531Z 19012KT 19/11 A2994 RMK A01 T01930111  RH  059%=      5-min Rain = 0
KSB1 180532Z 20011KT 19/11 A2994 RMK A01 T01940111  RH  059%=      5-min Rain = 0
KSB1 180533Z 19011KT 19/11 A2994 RMK A01 T01940111  RH  059%=      5-min Rain = 0
KSB1 180534Z 19012KT 19/11 A2994 RMK A01 T01940111  RH  059%=      5-min Rain = 0
KSB1 180535Z 19012KT 19/11 A2994 RMK A01 T01940111  RH  059%=      5-min Rain = 0
KSB1 180536Z 19010KT 19/11 A2994 RMK A01 T01930111  RH  059%=      5-min Rain = 0
KSB1 180537Z 19009KT 19/11 A2994 RMK A01 T01930111  RH  059%=      5-min Rain = 0
KSB1 180538Z 19010KT 19/11 A2994 RMK A01 T01920111  RH  059%=      5-min Rain = 0
KSB1 180539Z 19010KT 19/11 A2994 RMK A01 T01920110  RH  059%=      5-min Rain = 0
KSB1 180540Z 20010KT 19/11 A2994 RMK A01 T01920111  RH  059%=      5-min Rain = 0
KSB1 180541Z 19010KT 19/11 A2994 RMK A01 T01920111  RH  059%=      5-min Rain = 0
KSB1 180542Z 19010KT 19/11 A2994 RMK A01 T01910111  RH  060%=      5-min Rain = 0
KSB1 180543Z 19010KT 19/11 A2994 RMK A01 T01900111  RH  060%=      5-min Rain = 0
KSB1 180544Z 19010KT 19/11 A2994 RMK A01 T01900111  RH  060%=      5-min Rain = 0
KSB1 180545Z 19013KT 19/11 A2994 RMK A01 T01900111  RH  060%=      5-min Rain = 0
KSB1 180546Z 19014KT 19/11 A2994 RMK A01 T01910111  RH  060%=      5-min Rain = 0
KSB1 180547Z 19012KT 19/11 A2994 RMK A01 T01920112  RH  060%=      5-min Rain = 0
KSB1 180548Z 19013KT 19/11 A2994 RMK A01 T01920112  RH  059%=      5-min Rain = 0
KSB1 180549Z 19014KT 19/11 A2994 RMK A01 T01920112  RH  060%=      5-min Rain = 0
KSB1 180550Z 19012KT 19/11 A2994 RMK A01 T01920112  RH  060%=      5-min Rain = 0
KSB1 180551Z 19012KT 19/11 A2994 RMK A01 T01920112  RH  060%=      5-min Rain = 0
KSB1 180552Z 19015KT 19/11 A2994 RMK A01 T01920112  RH  060%=      5-min Rain = 0
KSB1 180553Z 19013KT 19/11 A2994 RMK A01 T01920111  RH  059%=      5-min Rain = 0
KSB1 180554Z 19014KT 19/11 A2994 RMK A01 T01920111  RH  059%=      5-min Rain = 0
KSB1 180555Z 19013KT 19/11 A2994 RMK A01 T01920111  RH  059%=      5-min Rain = 0
KSB1 180556Z 19014KT 19/11 A2994 RMK A01 T01920111  RH  059%=      5-min Rain = 0
KSB1 180557Z 19013KT 19/11 A2994 RMK A01 T01920111  RH  059%=      5-min Rain = 0
KSB1 180558Z 18013KT 19/11 A2994 RMK A01 T01920111  RH  059%=      5-min Rain = 0
KSB1 180559Z 19012KT 19/11 A2994 RMK A01 T01920111  RH  060%=      5-min Rain = 0
KSB1 180600Z 19013KT 19/11 A2994 RMK A01 T01910111  RH  060%=      5-min Rain = 0
KSB1 180601Z 19014KT 19/11 A2994 RMK A01 T01900111  RH  060%=      5-min Rain = 0
KSB1 180602Z 19014KT 19/11 A2994 RMK A01 T01900111  RH  060%=      5-min Rain = 0
KSB1 180603Z 19014KT 19/11 A2994 RMK A01 T01900111  RH  060%=      5-min Rain = 0
KSB1 180604Z 20013KT 19/11 A2994 RMK A01 T01900111  RH  060%=      5-min Rain = 0
KSB1 180605Z 19012KT 19/11 A2994 RMK A01 T01900111  RH  060%=      5-min Rain = 0
KSB1 180606Z 19012KT 19/11 A2993 RMK A01 T01900111  RH  060%=      5-min Rain = 0
KSB1 180607Z 19015KT 19/11 A2993 RMK A01 T01890111  RH  061%=      5-min Rain = 0
KSB1 180608Z 19014KT 19/11 A2993 RMK A01 T01900112  RH  060%=      5-min Rain = 0
KSB1 180609Z 19012KT 19/11 A2993 RMK A01 T01900112  RH  060%=      5-min Rain = 0
KSB1 180610Z 19012KT 19/11 A2993 RMK A01 T01900112  RH  061%=      5-min Rain = 0
KSB1 180611Z 19012KT 19/11 A2994 RMK A01 T01900112  RH  061%=      5-min Rain = 0
KSB1 180612Z 19011KT 19/11 A2993 RMK A01 T01890112  RH  061%=      5-min Rain = 0
KSB1 180613Z 19014KT 19/11 A2993 RMK A01 T01880112  RH  061%=      5-min Rain = 0
KSB1 180614Z 19011KT 19/11 A2993 RMK A01 T01880113  RH  061%=      5-min Rain = 0
KSB1 180615Z 19012KT 19/11 A2993 RMK A01 T01890113  RH  061%=      5-min Rain = 0
KSB1 180616Z 19012KT 19/11 A2993 RMK A01 T01890113  RH  062%=      5-min Rain = 0
KSB1 180617Z 19012KT 19/11 A2993 RMK A01 T01880113  RH  062%=      5-min Rain = 0
KSB1 180618Z 18012KT 19/11 A2993 RMK A01 T01880114  RH  062%=      5-min Rain = 0
KSB1 180619Z 19013KT 19/11 A2993 RMK A01 T01880114  RH  062%=      5-min Rain = 0
KSB1 180620Z 19012KT 19/11 A2993 RMK A01 T01880114  RH  062%=      5-min Rain = 0
KSB1 180621Z 19012KT 19/11 A2993 RMK A01 T01880114  RH  062%=      5-min Rain = 0
KSB1 180622Z 19013KT 19/11 A2993 RMK A01 T01870114  RH  062%=      5-min Rain = 0
KSB1 180623Z 19013KT 19/11 A2993 RMK A01 T01870114  RH  062%=      5-min Rain = 0
KSB1 180624Z 19012KT 19/12 A2993 RMK A01 T01870115  RH  062%=      5-min Rain = 0
KSB1 180625Z 19012KT 19/12 A2993 RMK A01 T01870115  RH  063%=      5-min Rain = 0
KSB1 180626Z 19013KT 19/12 A2993 RMK A01 T01860115  RH  063%=      5-min Rain = 0
KSB1 180627Z 19012KT 19/12 A2993 RMK A01 T01870115  RH  063%=      5-min Rain = 0
KSB1 180628Z 19012KT 19/12 A2993 RMK A01 T01870115  RH  063%=      5-min Rain = 0
KSB1 180629Z 19012KT 19/12 A2993 RMK A01 T01860115  RH  063%=      5-min Rain = 0
KSB1 180630Z 19012KT 19/12 A2993 RMK A01 T01860115  RH  063%=      5-min Rain = 0
KSB1 180631Z 20011KT 19/12 A2993 RMK A01 T01860115  RH  063%=      5-min Rain = 0
KSB1 180632Z 19012KT 19/12 A2993 RMK A01 T01860116  RH  063%=      5-min Rain = 0
KSB1 180633Z 19011KT 19/12 A2993 RMK A01 T01860116  RH  064%=      5-min Rain = 0
KSB1 180634Z 19011KT 19/12 A2993 RMK A01 T01860116  RH  064%=      5-min Rain = 0
KSB1 180635Z 19011KT 19/12 A2993 RMK A01 T01850116  RH  064%=      5-min Rain = 0
KSB1 180636Z 19010KT 19/12 A2993 RMK A01 T01850116  RH  064%=      5-min Rain = 0
KSB1 180637Z 19012KT 19/12 A2993 RMK A01 T01850116  RH  064%=      5-min Rain = 0
KSB1 180638Z 19011KT 19/12 A2993 RMK A01 T01850116  RH  064%=      5-min Rain = 0
KSB1 180639Z 19011KT 19/12 A2993 RMK A01 T01850116  RH  064%=      5-min Rain = 0
KSB1 180640Z 19012KT 19/12 A2993 RMK A01 T01850116  RH  064%=      5-min Rain = 0
KSB1 180641Z 19011KT 18/12 A2993 RMK A01 T01840116  RH  064%=      5-min Rain = 0
KSB1 180642Z 19011KT 19/12 A2993 RMK A01 T01850116  RH  064%=      5-min Rain = 0
KSB1 180643Z 19013KT 19/12 A2993 RMK A01 T01850116  RH  064%=      5-min Rain = 0
KSB1 180644Z 19013KT 19/12 A2993 RMK A01 T01860116  RH  064%=      5-min Rain = 0
KSB1 180645Z 18012KT 19/12 A2993 RMK A01 T01860116  RH  064%=      5-min Rain = 0
KSB1 180646Z 19011KT 19/12 A2993 RMK A01 T01860116  RH  064%=      5-min Rain = 0
KSB1 180647Z 18013KT 19/12 A2993 RMK A01 T01860116  RH  064%=      5-min Rain = 0
KSB1 180648Z 18012KT 19/12 A2993 RMK A01 T01850116  RH  064%=      5-min Rain = 0
KSB1 180649Z 18012KT 19/12 A2993 RMK A01 T01860116  RH  064%=      5-min Rain = 0
KSB1 180650Z 19012KT 19/12 A2993 RMK A01 T01860116  RH  064%=      5-min Rain = 0
KSB1 180651Z 18013KT 19/12 A2993 RMK A01 T01860116  RH  064%=      5-min Rain = 0
KSB1 180652Z 19012KT 19/12 A2993 RMK A01 T01860116  RH  064%=      5-min Rain = 0
KSB1 180653Z 19012KT 19/12 A2993 RMK A01 T01860116  RH  064%=      5-min Rain = 0
KSB1 180654Z 19011KT 19/12 A2993 RMK A01 T01860116  RH  064%=      5-min Rain = 0
KSB1 180655Z 19011KT 19/12 A2993 RMK A01 T01860116  RH  064%=      5-min Rain = 0
KSB1 180656Z 19011KT 19/12 A2993 RMK A01 T01850116  RH  064%=      5-min Rain = 0
KSB1 180657Z 20010KT 18/12 A2993 RMK A01 T01840116  RH  064%=      5-min Rain = 0
KSB1 180658Z 20010KT 18/12 A2993 RMK A01 T01830115  RH  064%=      5-min Rain = 0
KSB1 180659Z 20009KT 18/12 A2993 RMK A01 T01830115  RH  065%=      5-min Rain = 0
KSB1 180700Z 20009KT 18/12 A2993 RMK A01 T01820116  RH  065%=      5-min Rain = 0
KSB1 180701Z 20008KT 18/12 A2993 RMK A01 T01820115  RH  065%=      5-min Rain = 0
KSB1 180702Z 20008KT 18/12 A2993 RMK A01 T01810116  RH  065%=      5-min Rain = 0
KSB1 180703Z 20009KT 18/12 A2993 RMK A01 T01800115  RH  066%=      5-min Rain = 0
KSB1 180704Z 20010KT 18/12 A2993 RMK A01 T01800115  RH  066%=      5-min Rain = 0
KSB1 180705Z 20010KT 18/12 A2993 RMK A01 T01800115  RH  066%=      5-min Rain = 0
KSB1 180706Z 20010KT 18/12 A2993 RMK A01 T01800115  RH  066%=      5-min Rain = 0
KSB1 180707Z 20009KT 18/12 A2993 RMK A01 T01800115  RH  066%=      5-min Rain = 0
KSB1 180708Z 20009KT 18/11 A2993 RMK A01 T01790114  RH  066%=      5-min Rain = 0
KSB1 180709Z 20009KT 18/11 A2993 RMK A01 T01790114  RH  066%=      5-min Rain = 0
KSB1 180710Z 20009KT 18/11 A2993 RMK A01 T01780114  RH  066%=      5-min Rain = 0
KSB1 180711Z 20010KT 18/11 A2993 RMK A01 T01780114  RH  066%=      5-min Rain = 0
KSB1 180712Z 20011KT 18/11 A2993 RMK A01 T01780114  RH  066%=      5-min Rain = 0
KSB1 180713Z 19011KT 18/11 A2993 RMK A01 T01780114  RH  066%=      5-min Rain = 0
KSB1 180714Z 19011KT 18/11 A2992 RMK A01 T01790114  RH  066%=      5-min Rain = 0
KSB1 180715Z 19011KT 18/11 A2992 RMK A01 T01790114  RH  066%=      5-min Rain = 0
KSB1 180716Z 20011KT 18/11 A2992 RMK A01 T01790114  RH  066%=      5-min Rain = 0
KSB1 180717Z 19010KT 18/11 A2993 RMK A01 T01790114  RH  066%=      5-min Rain = 0
KSB1 180718Z 20011KT 18/11 A2993 RMK A01 T01790114  RH  066%=      5-min Rain = 0
KSB1 180719Z 20011KT 18/11 A2993 RMK A01 T01790114  RH  066%=      5-min Rain = 0
KSB1 180720Z 20011KT 18/11 A2993 RMK A01 T01790114  RH  066%=      5-min Rain = 0
KSB1 180721Z 19011KT 18/11 A2992 RMK A01 T01790114  RH  065%=      5-min Rain = 0
KSB1 180722Z 20010KT 18/11 A2992 RMK A01 T01800114  RH  065%=      5-min Rain = 0
KSB1 180723Z 20010KT 18/11 A2993 RMK A01 T01790114  RH  066%=      5-min Rain = 0
KSB1 180724Z 20010KT 18/11 A2993 RMK A01 T01790114  RH  066%=      5-min Rain = 0
KSB1 180725Z 20010KT 18/11 A2992 RMK A01 T01790114  RH  066%=      5-min Rain = 0
KSB1 180726Z 20010KT 18/11 A2992 RMK A01 T01790114  RH  065%=      5-min Rain = 0
KSB1 180727Z 20010KT 18/11 A2992 RMK A01 T01800114  RH  066%=      5-min Rain = 0
KSB1 180728Z 20011KT 18/11 A2992 RMK A01 T01790114  RH  066%=      5-min Rain = 0
KSB1 180729Z 20010KT 18/11 A2992 RMK A01 T01790114  RH  066%=      5-min Rain = 0
KSB1 180730Z 19011KT 18/11 A2992 RMK A01 T01790114  RH  066%=      5-min Rain = 0
KSB1 180731Z 19012KT 18/11 A2992 RMK A01 T01790114  RH  065%=      5-min Rain = 0
KSB1 180732Z 20012KT 18/11 A2992 RMK A01 T01800113  RH  065%=      5-min Rain = 0
KSB1 180733Z 19012KT 18/11 A2992 RMK A01 T01810113  RH  065%=      5-min Rain = 0
KSB1 180734Z 19012KT 18/11 A2992 RMK A01 T01810113  RH  064%=      5-min Rain = 0
KSB1 180735Z 20011KT 18/11 A2992 RMK A01 T01810113  RH  064%=      5-min Rain = 0
KSB1 180736Z 20011KT 18/11 A2992 RMK A01 T01810113  RH  064%=      5-min Rain = 0
KSB1 180737Z 20011KT 18/11 A2992 RMK A01 T01800112  RH  065%=      5-min Rain = 0
KSB1 180738Z 20012KT 18/11 A2992 RMK A01 T01790113  RH  065%=      5-min Rain = 0
KSB1 180739Z 20011KT 18/11 A2992 RMK A01 T01790112  RH  065%=      5-min Rain = 0
KSB1 180740Z 20012KT 18/11 A2992 RMK A01 T01790112  RH  065%=      5-min Rain = 0
KSB1 180741Z 20011KT 18/11 A2992 RMK A01 T01790112  RH  065%=      5-min Rain = 0
KSB1 180742Z 20012KT 18/11 A2992 RMK A01 T01790112  RH  065%=      5-min Rain = 0
KSB1 180743Z 20012KT 18/11 A2992 RMK A01 T01790112  RH  065%=      5-min Rain = 0
KSB1 180744Z 21011KT 18/11 A2992 RMK A01 T01790112  RH  065%=      5-min Rain = 0
KSB1 180745Z 21012KT 18/11 A2992 RMK A01 T01780112  RH  065%=      5-min Rain = 0
KSB1 180746Z 21011KT 18/11 A2992 RMK A01 T01780112  RH  066%=      5-min Rain = 0
KSB1 180747Z 20011KT 18/11 A2992 RMK A01 T01770113  RH  066%=      5-min Rain = 0
KSB1 180748Z 21011KT 18/11 A2992 RMK A01 T01770113  RH  066%=      5-min Rain = 0
KSB1 180749Z 21011KT 18/11 A2992 RMK A01 T01760113  RH  066%=      5-min Rain = 0
KSB1 180750Z 21011KT 18/11 A2992 RMK A01 T01760113  RH  066%=      5-min Rain = 0
KSB1 180751Z 21011KT 18/11 A2992 RMK A01 T01760113  RH  066%=      5-min Rain = 0
KSB1 180752Z 21011KT 18/11 A2992 RMK A01 T01750113  RH  067%=      5-min Rain = 0
KSB1 180753Z 21012KT 18/11 A2992 RMK A01 T01750113  RH  067%=      5-min Rain = 0
KSB1 180754Z 21012KT 18/11 A2992 RMK A01 T01750113  RH  067%=      5-min Rain = 0
KSB1 180755Z 21011KT 18/11 A2992 RMK A01 T01750113  RH  067%=      5-min Rain = 0
KSB1 180756Z 21011KT 18/11 A2992 RMK A01 T01750113  RH  067%=      5-min Rain = 0
KSB1 180757Z 21011KT 18/11 A2992 RMK A01 T01750113  RH  067%=      5-min Rain = 0
KSB1 180758Z 21010KT 18/11 A2992 RMK A01 T01760113  RH  067%=      5-min Rain = 0
KSB1 180759Z 21010KT 18/11 A2992 RMK A01 T01750113  RH  067%=      5-min Rain = 0
KSB1 180800Z 21010KT 18/11 A2992 RMK A01 T01750113  RH  067%=      5-min Rain = 0
KSB1 180801Z 21010KT 18/11 A2992 RMK A01 T01750113  RH  067%=      5-min Rain = 0
KSB1 180802Z 21010KT 18/11 A2992 RMK A01 T01750113  RH  067%=      5-min Rain = 0
KSB1 180803Z 21009KT 18/11 A2993 RMK A01 T01750113  RH  067%=      5-min Rain = 0
KSB1 180804Z 21010KT 18/11 A2993 RMK A01 T01750113  RH  067%=      5-min Rain = 0
KSB1 180805Z 21010KT 17/11 A2992 RMK A01 T01740113  RH  067%=      5-min Rain = 0
KSB1 180806Z 21009KT 18/11 A2992 RMK A01 T01750113  RH  067%=      5-min Rain = 0
KSB1 180807Z 21010KT 18/11 A2992 RMK A01 T01750113  RH  067%=      5-min Rain = 0
KSB1 180808Z 21010KT 18/11 A2993 RMK A01 T01750113  RH  067%=      5-min Rain = 0
KSB1 180809Z 21009KT 18/11 A2993 RMK A01 T01750113  RH  067%=      5-min Rain = 0
KSB1 180810Z 21008KT 17/11 A2992 RMK A01 T01740113  RH  067%=      5-min Rain = 0
KSB1 180811Z 20009KT 17/11 A2992 RMK A01 T01740113  RH  067%=      5-min Rain = 0
KSB1 180812Z 21009KT 18/11 A2992 RMK A01 T01750114  RH  067%=      5-min Rain = 0
KSB1 180813Z 21009KT 18/11 A2992 RMK A01 T01760114  RH  067%=      5-min Rain = 0
KSB1 180814Z 21009KT 18/11 A2992 RMK A01 T01760113  RH  067%=      5-min Rain = 0
KSB1 180815Z 21009KT 18/11 A2992 RMK A01 T01760114  RH  067%=      5-min Rain = 0
KSB1 180816Z 21009KT 18/11 A2992 RMK A01 T01750114  RH  067%=      5-min Rain = 0
KSB1 180817Z 21009KT 18/11 A2992 RMK A01 T01750114  RH  067%=      5-min Rain = 0
KSB1 180818Z 21009KT 18/11 A2992 RMK A01 T01750114  RH  067%=      5-min Rain = 0
KSB1 180819Z 21009KT 18/11 A2992 RMK A01 T01760114  RH  067%=      5-min Rain = 0
KSB1 180820Z 20009KT 18/11 A2992 RMK A01 T01760114  RH  067%=      5-min Rain = 0
KSB1 180821Z 20009KT 18/11 A2992 RMK A01 T01760114  RH  067%=      5-min Rain = 0
KSB1 180822Z 21008KT 18/11 A2992 RMK A01 T01750114  RH  067%=      5-min Rain = 0
KSB1 180823Z 21009KT 18/11 A2992 RMK A01 T01750114  RH  067%=      5-min Rain = 0
KSB1 180824Z 20009KT 17/11 A2992 RMK A01 T01740114  RH  068%=      5-min Rain = 0
KSB1 180825Z 20009KT 17/11 A2992 RMK A01 T01730114  RH  068%=      5-min Rain = 0
KSB1 180826Z 20009KT 17/11 A2992 RMK A01 T01740114  RH  068%=      5-min Rain = 0
KSB1 180827Z 21009KT 17/11 A2992 RMK A01 T01740114  RH  068%=      5-min Rain = 0
KSB1 180828Z 20010KT 17/11 A2992 RMK A01 T01730114  RH  068%=      5-min Rain = 0
KSB1 180829Z 20010KT 17/11 A2992 RMK A01 T01720114  RH  068%=      5-min Rain = 0
KSB1 180830Z 20010KT 17/11 A2992 RMK A01 T01720114  RH  068%=      5-min Rain = 0
KSB1 180831Z 21010KT 17/11 A2992 RMK A01 T01730114  RH  068%=      5-min Rain = 0
KSB1 180832Z 20010KT 17/11 A2992 RMK A01 T01730114  RH  068%=      5-min Rain = 0
KSB1 180833Z 20009KT 17/12 A2992 RMK A01 T01730115  RH  068%=      5-min Rain = 0
KSB1 180834Z 20010KT 17/12 A2992 RMK A01 T01730115  RH  068%=      5-min Rain = 0
KSB1 180835Z 20010KT 17/11 A2992 RMK A01 T01730114  RH  069%=      5-min Rain = 0
KSB1 180836Z 20010KT 17/11 A2992 RMK A01 T01720114  RH  069%=      5-min Rain = 0
KSB1 180837Z 20010KT 17/11 A2992 RMK A01 T01720114  RH  069%=      5-min Rain = 0
KSB1 180838Z 20011KT 17/11 A2992 RMK A01 T01710114  RH  069%=      5-min Rain = 0
KSB1 180839Z 19011KT 17/11 A2992 RMK A01 T01710114  RH  069%=      5-min Rain = 0
KSB1 180840Z 20011KT 17/11 A2992 RMK A01 T01710114  RH  069%=      5-min Rain = 0
KSB1 180841Z 20011KT 17/11 A2992 RMK A01 T01710114  RH  069%=      5-min Rain = 0
KSB1 180842Z 19011KT 17/11 A2992 RMK A01 T01710114  RH  069%=      5-min Rain = 0
KSB1 180843Z 20011KT 17/11 A2992 RMK A01 T01720114  RH  069%=      5-min Rain = 0
KSB1 180844Z 20012KT 17/11 A2992 RMK A01 T01730114  RH  068%=      5-min Rain = 0
KSB1 180845Z 19011KT 17/11 A2992 RMK A01 T01720114  RH  068%=      5-min Rain = 0
KSB1 180846Z 19011KT 17/11 A2992 RMK A01 T01730114  RH  068%=      5-min Rain = 0
KSB1 180847Z 19011KT 17/11 A2992 RMK A01 T01740114  RH  068%=      5-min Rain = 0
KSB1 180848Z 19010KT 17/11 A2992 RMK A01 T01740114  RH  068%=      5-min Rain = 0
KSB1 180849Z 20011KT 17/11 A2992 RMK A01 T01740114  RH  068%=      5-min Rain = 0
KSB1 180850Z 19012KT 18/11 A2992 RMK A01 T01750114  RH  067%=      5-min Rain = 0
KSB1 180851Z 19010KT 18/11 A2992 RMK A01 T01750114  RH  067%=      5-min Rain = 0
KSB1 180852Z 19012KT 18/11 A2992 RMK A01 T01750114  RH  067%=      5-min Rain = 0
KSB1 180853Z 19011KT 18/11 A2992 RMK A01 T01750114  RH  067%=      5-min Rain = 0
KSB1 180854Z 19011KT 18/11 A2992 RMK A01 T01750114  RH  067%=      5-min Rain = 0
KSB1 180855Z 19012KT 18/11 A2992 RMK A01 T01750114  RH  067%=      5-min Rain = 0
KSB1 180856Z 19011KT 18/11 A2992 RMK A01 T01770114  RH  067%=      5-min Rain = 0
KSB1 180857Z 19011KT 18/11 A2992 RMK A01 T01780114  RH  066%=      5-min Rain = 0
KSB1 180858Z 19011KT 18/11 A2992 RMK A01 T01770114  RH  067%=      5-min Rain = 0
KSB1 180859Z 20010KT 18/11 A2992 RMK A01 T01760114  RH  067%=      5-min Rain = 0
KSB1 180900Z 20010KT 18/11 A2992 RMK A01 T01750114  RH  067%=      5-min Rain = 0
KSB1 180901Z 19011KT 18/11 A2992 RMK A01 T01750114  RH  068%=      5-min Rain = 0
KSB1 180902Z 19011KT 18/11 A2992 RMK A01 T01750114  RH  067%=      5-min Rain = 0
KSB1 180903Z 19009KT 18/12 A2992 RMK A01 T01760115  RH  067%=      5-min Rain = 0
KSB1 180904Z 20010KT 18/12 A2992 RMK A01 T01760115  RH  067%=      5-min Rain = 0
KSB1 180905Z 20010KT 18/12 A2992 RMK A01 T01760115  RH  067%=      5-min Rain = 0
KSB1 180906Z 20009KT 18/12 A2992 RMK A01 T01750115  RH  067%=      5-min Rain = 0
KSB1 180907Z 19009KT 18/12 A2992 RMK A01 T01750115  RH  068%=      5-min Rain = 0
KSB1 180908Z 20009KT 17/12 A2992 RMK A01 T01740115  RH  068%=      5-min Rain = 0
KSB1 180909Z 20008KT 17/11 A2991 RMK A01 T01730114  RH  068%=      5-min Rain = 0
KSB1 180910Z 20009KT 17/12 A2991 RMK A01 T01730115  RH  069%=      5-min Rain = 0
KSB1 180911Z 20007KT 17/11 A2991 RMK A01 T01710114  RH  069%=      5-min Rain = 0
KSB1 180912Z 20008KT 17/12 A2991 RMK A01 T01700115  RH  070%=      5-min Rain = 0
KSB1 180913Z 20010KT 17/12 A2991 RMK A01 T01690115  RH  070%=      5-min Rain = 0
KSB1 180914Z 20009KT 17/12 A2991 RMK A01 T01690115  RH  070%=      5-min Rain = 0
KSB1 180915Z 19008KT 17/12 A2991 RMK A01 T01700115  RH  070%=      5-min Rain = 0
KSB1 180916Z 20009KT 17/12 A2991 RMK A01 T01700115  RH  070%=      5-min Rain = 0
KSB1 180917Z 20008KT 17/12 A2991 RMK A01 T01700115  RH  070%=      5-min Rain = 0
KSB1 180918Z 20008KT 17/12 A2991 RMK A01 T01700115  RH  070%=      5-min Rain = 0
KSB1 180919Z 20008KT 17/12 A2991 RMK A01 T01700115  RH  070%=      5-min Rain = 0
KSB1 180920Z 19009KT 17/12 A2991 RMK A01 T01700115  RH  070%=      5-min Rain = 0
KSB1 180921Z 20009KT 17/12 A2991 RMK A01 T01700115  RH  070%=      5-min Rain = 0
KSB1 180922Z 20009KT 17/12 A2991 RMK A01 T01700115  RH  070%=      5-min Rain = 0
KSB1 180923Z 20008KT 17/12 A2991 RMK A01 T01700115  RH  070%=      5-min Rain = 0
KSB1 180924Z 20009KT 17/12 A2991 RMK A01 T01700115  RH  070%=      5-min Rain = 0
KSB1 180925Z 20009KT 17/12 A2991 RMK A01 T01690115  RH  070%=      5-min Rain = 0
KSB1 180926Z 20009KT 17/12 A2991 RMK A01 T01690115  RH  070%=      5-min Rain = 0
KSB1 180927Z 20009KT 17/12 A2991 RMK A01 T01690115  RH  070%=      5-min Rain = 0
KSB1 180928Z 20010KT 17/12 A2991 RMK A01 T01690115  RH  070%=      5-min Rain = 0
KSB1 180929Z 20009KT 17/12 A2991 RMK A01 T01690115  RH  070%=      5-min Rain = 0
KSB1 180930Z 20010KT 17/12 A2991 RMK A01 T01690115  RH  070%=      5-min Rain = 0
KSB1 180931Z 20009KT 17/12 A2991 RMK A01 T01700115  RH  070%=      5-min Rain = 0
KSB1 180932Z 20009KT 17/12 A2991 RMK A01 T01690115  RH  070%=      5-min Rain = 0
KSB1 180933Z 20009KT 17/11 A2991 RMK A01 T01680114  RH  071%=      5-min Rain = 0
KSB1 180934Z 20009KT 17/12 A2991 RMK A01 T01680115  RH  071%=      5-min Rain = 0
KSB1 180935Z 20009KT 17/12 A2991 RMK A01 T01680115  RH  071%=      5-min Rain = 0
KSB1 180936Z 20009KT 17/11 A2991 RMK A01 T01670114  RH  071%=      5-min Rain = 0
KSB1 180937Z 20009KT 17/11 A2991 RMK A01 T01670114  RH  071%=      5-min Rain = 0
KSB1 180938Z 19010KT 17/12 A2991 RMK A01 T01690115  RH  070%=      5-min Rain = 0
KSB1 180939Z 20009KT 17/11 A2991 RMK A01 T01690114  RH  070%=      5-min Rain = 0
KSB1 180940Z 20010KT 17/11 A2991 RMK A01 T01700114  RH  070%=      5-min Rain = 0
KSB1 180941Z 20009KT 17/11 A2991 RMK A01 T01710114  RH  069%=      5-min Rain = 0
KSB1 180942Z 20009KT 17/11 A2991 RMK A01 T01710114  RH  069%=      5-min Rain = 0
KSB1 180943Z 20010KT 17/11 A2991 RMK A01 T01700114  RH  069%=      5-min Rain = 0
KSB1 180944Z 20012KT 17/11 A2991 RMK A01 T01700114  RH  069%=      5-min Rain = 0
KSB1 180945Z 20010KT 17/11 A2991 RMK A01 T01710114  RH  069%=      5-min Rain = 0
KSB1 180946Z 20011KT 17/11 A2991 RMK A01 T01710114  RH  069%=      5-min Rain = 0
KSB1 180947Z 20011KT 17/11 A2991 RMK A01 T01710114  RH  069%=      5-min Rain = 0
KSB1 180948Z 20010KT 17/11 A2991 RMK A01 T01720114  RH  069%=      5-min Rain = 0
KSB1 180949Z 20011KT 17/11 A2991 RMK A01 T01720114  RH  069%=      5-min Rain = 0
KSB1 180950Z 20010KT 17/11 A2991 RMK A01 T01720114  RH  069%=      5-min Rain = 0
KSB1 180951Z 20009KT 17/11 A2991 RMK A01 T01720114  RH  069%=      5-min Rain = 0
KSB1 180952Z 20009KT 17/11 A2991 RMK A01 T01710114  RH  069%=      5-min Rain = 0
KSB1 180953Z 20009KT 17/11 A2991 RMK A01 T01710114  RH  069%=      5-min Rain = 0
KSB1 180954Z 20008KT 17/11 A2991 RMK A01 T01700114  RH  069%=      5-min Rain = 0
KSB1 180955Z 20009KT 17/11 A2991 RMK A01 T01700114  RH  070%=      5-min Rain = 0
KSB1 180956Z 20007KT 17/11 A2991 RMK A01 T01700114  RH  070%=      5-min Rain = 0
KSB1 180957Z 20009KT 17/11 A2991 RMK A01 T01690114  RH  070%=      5-min Rain = 0
KSB1 180958Z 20008KT 17/11 A2991 RMK A01 T01690114  RH  070%=      5-min Rain = 0
KSB1 180959Z 20009KT 17/11 A2991 RMK A01 T01690114  RH  070%=      5-min Rain = 0
KSB1 181000Z 20008KT 17/11 A2991 RMK A01 T01690114  RH  070%=      5-min Rain = 0
KSB1 181001Z 21007KT 17/11 A2991 RMK A01 T01680114  RH  071%=      5-min Rain = 0
KSB1 181002Z 20008KT 17/11 A2991 RMK A01 T01670114  RH  071%=      5-min Rain = 0
KSB1 181003Z 20007KT 17/11 A2991 RMK A01 T01660114  RH  071%=      5-min Rain = 0
KSB1 181004Z 21008KT 17/11 A2991 RMK A01 T01650114  RH  071%=      5-min Rain = 0
KSB1 181005Z 21008KT 17/11 A2991 RMK A01 T01650114  RH  072%=      5-min Rain = 0
KSB1 181006Z 20009KT 17/11 A2991 RMK A01 T01650114  RH  072%=      5-min Rain = 0
KSB1 181007Z 20008KT 16/11 A2991 RMK A01 T01640114  RH  072%=      5-min Rain = 0
KSB1 181008Z 20008KT 16/11 A2991 RMK A01 T01640113  RH  072%=      5-min Rain = 0
KSB1 181009Z 20008KT 16/11 A2991 RMK A01 T01640114  RH  072%=      5-min Rain = 0
KSB1 181010Z 20008KT 16/11 A2991 RMK A01 T01640113  RH  072%=      5-min Rain = 0
KSB1 181011Z 20009KT 16/11 A2991 RMK A01 T01630113  RH  072%=      5-min Rain = 0
KSB1 181012Z 20008KT 16/11 A299 RMK A01 T01630113  RH  072%=      5-min Rain = 0
KSB1 181013Z 21008KT 16/11 A299 RMK A01 T01630113  RH  072%=      5-min Rain = 0
KSB1 181014Z 21008KT 16/11 A299 RMK A01 T01630113  RH  072%=      5-min Rain = 0
KSB1 181015Z 21008KT 16/11 A299 RMK A01 T01630113  RH  072%=      5-min Rain = 0
KSB1 181016Z 21007KT 16/11 A299 RMK A01 T01620113  RH  073%=      5-min Rain = 0
KSB1 181017Z 21007KT 16/11 A2991 RMK A01 T01610113  RH  073%=      5-min Rain = 0
KSB1 181018Z 22007KT 16/11 A2991 RMK A01 T01600113  RH  073%=      5-min Rain = 0
KSB1 181019Z 22007KT 16/11 A2991 RMK A01 T01590113  RH  074%=      5-min Rain = 0
KSB1 181020Z 22007KT 16/11 A2991 RMK A01 T01590113  RH  074%=      5-min Rain = 0
KSB1 181021Z 22007KT 16/11 A2991 RMK A01 T01590113  RH  074%=      5-min Rain = 0
KSB1 181022Z 22007KT 16/11 A2991 RMK A01 T01600113  RH  074%=      5-min Rain = 0
KSB1 181023Z 22007KT 16/11 A2991 RMK A01 T01590113  RH  074%=      5-min Rain = 0
KSB1 181024Z 22007KT 16/11 A2991 RMK A01 T01590113  RH  074%=      5-min Rain = 0
KSB1 181025Z 21008KT 16/11 A2991 RMK A01 T01590113  RH  074%=      5-min Rain = 0
KSB1 181026Z 22008KT 16/11 A2991 RMK A01 T01590113  RH  074%=      5-min Rain = 0
KSB1 181027Z 21008KT 16/11 A2991 RMK A01 T01590113  RH  074%=      5-min Rain = 0
KSB1 181028Z 22008KT 16/11 A2991 RMK A01 T01590113  RH  074%=      5-min Rain = 0
KSB1 181029Z 22007KT 16/11 A2991 RMK A01 T01600113  RH  074%=      5-min Rain = 0
KSB1 181030Z 22007KT 16/11 A2991 RMK A01 T01590113  RH  074%=      5-min Rain = 0
KSB1 181031Z 22007KT 16/11 A2991 RMK A01 T01580113  RH  074%=      5-min Rain = 0
KSB1 181032Z 22006KT 16/11 A2991 RMK A01 T01580113  RH  075%=      5-min Rain = 0
KSB1 181033Z 22007KT 16/11 A2991 RMK A01 T01580113  RH  075%=      5-min Rain = 0
KSB1 181034Z 22008KT 16/11 A299 RMK A01 T01570113  RH  075%=      5-min Rain = 0
KSB1 181035Z 21008KT 16/11 A299 RMK A01 T01570113  RH  075%=      5-min Rain = 0
KSB1 181036Z 22008KT 16/11 A2991 RMK A01 T01580113  RH  075%=      5-min Rain = 0
KSB1 181037Z 22008KT 16/11 A2991 RMK A01 T01580113  RH  075%=      5-min Rain = 0
KSB1 181038Z 22008KT 16/11 A299 RMK A01 T01580113  RH  075%=      5-min Rain = 0
KSB1 181039Z 22008KT 16/11 A299 RMK A01 T01580113  RH  075%=      5-min Rain = 0
KSB1 181040Z 22008KT 16/11 A299 RMK A01 T01580113  RH  074%=      5-min Rain = 0
KSB1 181041Z 22008KT 16/11 A299 RMK A01 T01590113  RH  074%=      5-min Rain = 0
KSB1 181042Z 22007KT 16/11 A299 RMK A01 T01590113  RH  074%=      5-min Rain = 0
KSB1 181043Z 23005KT 16/11 A299 RMK A01 T01590113  RH  074%=      5-min Rain = 0
KSB1 181044Z 23005KT 16/11 A2991 RMK A01 T01570112  RH  075%=      5-min Rain = 0
KSB1 181045Z 23006KT 16/11 A2991 RMK A01 T01560112  RH  075%=      5-min Rain = 0
KSB1 181046Z 23005KT 16/11 A2991 RMK A01 T01550112  RH  075%=      5-min Rain = 0
KSB1 181047Z 23006KT 15/11 A2991 RMK A01 T01540112  RH  076%=      5-min Rain = 0
KSB1 181048Z 23006KT 15/11 A2991 RMK A01 T01540112  RH  076%=      5-min Rain = 0
KSB1 181049Z 23006KT 15/11 A2991 RMK A01 T01540112  RH  076%=      5-min Rain = 0
KSB1 181050Z 23006KT 15/11 A2991 RMK A01 T01540112  RH  076%=      5-min Rain = 0
KSB1 181051Z 22007KT 15/11 A2991 RMK A01 T01540112  RH  076%=      5-min Rain = 0
KSB1 181052Z 22007KT 15/11 A2991 RMK A01 T01540112  RH  076%=      5-min Rain = 0
KSB1 181053Z 22006KT 15/11 A2991 RMK A01 T01540112  RH  076%=      5-min Rain = 0
KSB1 181054Z 23006KT 15/11 A2991 RMK A01 T01540112  RH  076%=      5-min Rain = 0
KSB1 181055Z 23006KT 15/11 A2991 RMK A01 T01540112  RH  076%=      5-min Rain = 0
KSB1 181056Z 23006KT 15/11 A2991 RMK A01 T01540112  RH  076%=      5-min Rain = 0
KSB1 181057Z 24007KT 15/11 A2991 RMK A01 T01540112  RH  076%=      5-min Rain = 0
KSB1 181058Z 23007KT 15/11 A2991 RMK A01 T01540112  RH  076%=      5-min Rain = 0
KSB1 181059Z 24007KT 15/11 A2991 RMK A01 T01540112  RH  076%=      5-min Rain = 0
KSB1 181100Z 24007KT 15/11 A2991 RMK A01 T01540112  RH  076%=      5-min Rain = 0
KSB1 181101Z 24008KT 15/11 A2991 RMK A01 T01540112  RH  076%=      5-min Rain = 0
KSB1 181102Z 24007KT 15/11 A2991 RMK A01 T01540112  RH  076%=      5-min Rain = 0
KSB1 181103Z 24008KT 15/11 A2991 RMK A01 T01530112  RH  076%=      5-min Rain = 0
KSB1 181104Z 24008KT 15/11 A2991 RMK A01 T01530112  RH  076%=      5-min Rain = 0
KSB1 181105Z 24008KT 15/11 A2991 RMK A01 T01530112  RH  076%=      5-min Rain = 0
KSB1 181106Z 24009KT 15/11 A2991 RMK A01 T01540112  RH  076%=      5-min Rain = 0
KSB1 181107Z 24008KT 15/11 A2991 RMK A01 T01540112  RH  076%=      5-min Rain = 0
KSB1 181108Z 24007KT 15/11 A2991 RMK A01 T01540112  RH  076%=      5-min Rain = 0
KSB1 181109Z 24007KT 15/11 A2991 RMK A01 T01530112  RH  076%=      5-min Rain = 0
KSB1 181110Z 24008KT 15/11 A2991 RMK A01 T01530112  RH  077%=      5-min Rain = 0
KSB1 181111Z 23008KT 15/11 A2991 RMK A01 T01530112  RH  077%=      5-min Rain = 0
KSB1 181112Z 23008KT 15/11 A2991 RMK A01 T01530112  RH  077%=      5-min Rain = 0
KSB1 181113Z 24008KT 15/11 A2991 RMK A01 T01530112  RH  077%=      5-min Rain = 0
KSB1 181114Z 24008KT 15/11 A2991 RMK A01 T01530112  RH  077%=      5-min Rain = 0
KSB1 181115Z 24007KT 15/11 A2991 RMK A01 T01530112  RH  077%=      5-min Rain = 0
KSB1 181116Z 24008KT 15/11 A2991 RMK A01 T01530113  RH  077%=      5-min Rain = 0
KSB1 181117Z 24008KT 15/11 A2991 RMK A01 T01530112  RH  077%=      5-min Rain = 0
KSB1 181118Z 24007KT 15/11 A2991 RMK A01 T01520112  RH  077%=      5-min Rain = 0
KSB1 181119Z 23008KT 15/11 A2991 RMK A01 T01530113  RH  077%=      5-min Rain = 0
KSB1 181120Z 23008KT 15/11 A2991 RMK A01 T01520112  RH  077%=      5-min Rain = 0
KSB1 181121Z 23008KT 15/11 A2991 RMK A01 T01520112  RH  077%=      5-min Rain = 0
KSB1 181122Z 24008KT 15/11 A2991 RMK A01 T01520112  RH  077%=      5-min Rain = 0
KSB1 181123Z 23008KT 15/11 A2991 RMK A01 T01520112  RH  077%=      5-min Rain = 0
KSB1 181124Z 23008KT 15/11 A2991 RMK A01 T01520112  RH  077%=      5-min Rain = 0
KSB1 181125Z 23008KT 15/11 A2991 RMK A01 T01520112  RH  077%=      5-min Rain = 0
KSB1 181126Z 23009KT 15/11 A2991 RMK A01 T01520112  RH  077%=      5-min Rain = 0
KSB1 181127Z 22009KT 15/11 A2991 RMK A01 T01520112  RH  077%=      5-min Rain = 0
KSB1 181128Z 22009KT 15/11 A2991 RMK A01 T01530112  RH  077%=      5-min Rain = 0
KSB1 181129Z 22009KT 15/11 A2991 RMK A01 T01540113  RH  076%=      5-min Rain = 0
KSB1 181130Z 22009KT 16/11 A2991 RMK A01 T01550113  RH  076%=      5-min Rain = 0
KSB1 181131Z 22009KT 16/11 A2991 RMK A01 T01560112  RH  075%=      5-min Rain = 0
KSB1 181132Z 22008KT 16/11 A2991 RMK A01 T01560112  RH  075%=      5-min Rain = 0
KSB1 181133Z 22008KT 16/11 A2991 RMK A01 T01560112  RH  075%=      5-min Rain = 0
KSB1 181134Z 23009KT 16/11 A2991 RMK A01 T01550112  RH  075%=      5-min Rain = 0
KSB1 181135Z 22009KT 16/11 A2991 RMK A01 T01550112  RH  075%=      5-min Rain = 0
KSB1 181136Z 22009KT 16/11 A2991 RMK A01 T01550112  RH  075%=      5-min Rain = 0
KSB1 181137Z 22009KT 16/11 A2991 RMK A01 T01550112  RH  075%=      5-min Rain = 0
KSB1 181138Z 23009KT 16/11 A2991 RMK A01 T01550112  RH  075%=      5-min Rain = 0
KSB1 181139Z 23008KT 16/11 A2991 RMK A01 T01560112  RH  075%=      5-min Rain = 0
KSB1 181140Z 22008KT 16/11 A2991 RMK A01 T01550112  RH  075%=      5-min Rain = 0
KSB1 181141Z 23008KT 16/11 A2991 RMK A01 T01550112  RH  075%=      5-min Rain = 0
KSB1 181142Z 22008KT 16/11 A2991 RMK A01 T01550112  RH  075%=      5-min Rain = 0
KSB1 181143Z 22008KT 16/11 A2991 RMK A01 T01560112  RH  075%=      5-min Rain = 0
KSB1 181144Z 23008KT 16/11 A2991 RMK A01 T01560112  RH  075%=      5-min Rain = 0
KSB1 181145Z 22008KT 16/11 A2991 RMK A01 T01560112  RH  075%=      5-min Rain = 0
KSB1 181146Z 22008KT 16/11 A2991 RMK A01 T01550112  RH  075%=      5-min Rain = 0
KSB1 181147Z 22008KT 15/11 A2991 RMK A01 T01540112  RH  076%=      5-min Rain = 0
KSB1 181148Z 22008KT 15/11 A2991 RMK A01 T01540112  RH  076%=      5-min Rain = 0
KSB1 181149Z 22008KT 15/11 A2991 RMK A01 T01540112  RH  076%=      5-min Rain = 0
KSB1 181150Z 22008KT 15/11 A2991 RMK A01 T01540112  RH  076%=      5-min Rain = 0
KSB1 181151Z 22007KT 15/11 A2991 RMK A01 T01540112  RH  076%=      5-min Rain = 0
KSB1 181152Z 22007KT 15/11 A2991 RMK A01 T01540112  RH  076%=      5-min Rain = 0
KSB1 181153Z 22008KT 15/11 A2991 RMK A01 T01540112  RH  076%=      5-min Rain = 0
KSB1 181154Z 22008KT 15/11 A2991 RMK A01 T01540112  RH  076%=      5-min Rain = 0
KSB1 181155Z 22007KT 15/11 A2991 RMK A01 T01540112  RH  076%=      5-min Rain = 0
KSB1 181156Z 23007KT 15/11 A2991 RMK A01 T01540112  RH  076%=      5-min Rain = 0
KSB1 181157Z 23007KT 15/11 A2991 RMK A01 T01540112  RH  076%=      5-min Rain = 0
KSB1 181158Z 23007KT 15/11 A2991 RMK A01 T01530112  RH  076%=      5-min Rain = 0
KSB1 181159Z 23007KT 15/11 A2991 RMK A01 T01530112  RH  077%=      5-min Rain = 0
KSB1 181200Z 23006KT 15/11 A2991 RMK A01 T01520112  RH  077%=      5-min Rain = 0
KSB1 181201Z 23006KT 15/11 A2991 RMK A01 T01520112  RH  077%=      5-min Rain = 0
KSB1 181202Z 23006KT 15/11 A2991 RMK A01 T01510112  RH  077%=      5-min Rain = 0
KSB1 181203Z 24006KT 15/11 A2991 RMK A01 T01510112  RH  078%=      5-min Rain = 0
KSB1 181204Z 24006KT 15/11 A2991 RMK A01 T01510112  RH  078%=      5-min Rain = 0
KSB1 181205Z 25006KT 15/11 A2991 RMK A01 T01510113  RH  078%=      5-min Rain = 0
KSB1 181206Z 25006KT 15/11 A2991 RMK A01 T01510112  RH  078%=      5-min Rain = 0
KSB1 181207Z 24006KT 15/11 A2991 RMK A01 T01510113  RH  078%=      5-min Rain = 0
KSB1 181208Z 24006KT 15/11 A2991 RMK A01 T01510113  RH  078%=      5-min Rain = 0
KSB1 181209Z 25005KT 15/11 A2991 RMK A01 T01510113  RH  078%=      5-min Rain = 0
KSB1 181210Z 25005KT 15/11 A2991 RMK A01 T01500112  RH  078%=      5-min Rain = 0
KSB1 181211Z 25005KT 15/11 A2991 RMK A01 T01500113  RH  078%=      5-min Rain = 0
KSB1 181212Z 24006KT 15/11 A2991 RMK A01 T01500112  RH  078%=      5-min Rain = 0
KSB1 181213Z 24005KT 15/11 A2991 RMK A01 T01490112  RH  079%=      5-min Rain = 0
KSB1 181214Z 25006KT 15/11 A2991 RMK A01 T01480112  RH  079%=      5-min Rain = 0
KSB1 181215Z 25006KT 15/11 A2991 RMK A01 T01480113  RH  079%=      5-min Rain = 0
KSB1 181216Z 26006KT 15/11 A2991 RMK A01 T01480113  RH  079%=      5-min Rain = 0
KSB1 181217Z 26005KT 15/11 A2991 RMK A01 T01480113  RH  079%=      5-min Rain = 0
KSB1 181218Z 25005KT 15/11 A2991 RMK A01 T01480113  RH  079%=      5-min Rain = 0
KSB1 181219Z 25005KT 15/11 A2991 RMK A01 T01470112  RH  080%=      5-min Rain = 0
KSB1 181220Z 24006KT 15/11 A2991 RMK A01 T01460112  RH  080%=      5-min Rain = 0
KSB1 181221Z 23006KT 15/11 A2991 RMK A01 T01460112  RH  080%=      5-min Rain = 0
KSB1 181222Z 23005KT 15/11 A2991 RMK A01 T01460112  RH  080%=      5-min Rain = 0
KSB1 181223Z 23005KT 15/11 A2991 RMK A01 T01460112  RH  080%=      5-min Rain = 0
KSB1 181224Z 23005KT 15/11 A2991 RMK A01 T01460112  RH  080%=      5-min Rain = 0
KSB1 181225Z 23006KT 15/11 A2991 RMK A01 T01460113  RH  080%=      5-min Rain = 0
KSB1 181226Z 23006KT 15/11 A2991 RMK A01 T01460113  RH  080%=      5-min Rain = 0
KSB1 181227Z 24006KT 15/11 A2991 RMK A01 T01460113  RH  080%=      5-min Rain = 0
KSB1 181228Z 24007KT 15/11 A2991 RMK A01 T01470113  RH  080%=      5-min Rain = 0
KSB1 181229Z 24007KT 15/11 A2991 RMK A01 T01470113  RH  080%=      5-min Rain = 0
KSB1 181230Z 23007KT 15/11 A2991 RMK A01 T01470113  RH  080%=      5-min Rain = 0
KSB1 181231Z 23007KT 15/11 A2991 RMK A01 T01480113  RH  079%=      5-min Rain = 0
KSB1 181232Z 23007KT 15/11 A2991 RMK A01 T01480112  RH  079%=      5-min Rain = 0
KSB1 181233Z 24007KT 15/11 A2991 RMK A01 T01480112  RH  079%=      5-min Rain = 0
KSB1 181234Z 24007KT 15/11 A2991 RMK A01 T01480113  RH  079%=      5-min Rain = 0
KSB1 181235Z 24008KT 15/11 A2991 RMK A01 T01480113  RH  079%=      5-min Rain = 0
KSB1 181236Z 23008KT 15/11 A2991 RMK A01 T01480113  RH  079%=      5-min Rain = 0
KSB1 181237Z 24009KT 15/11 A2991 RMK A01 T01480113  RH  079%=      5-min Rain = 0
KSB1 181238Z 24009KT 15/11 A2991 RMK A01 T01480112  RH  079%=      5-min Rain = 0
KSB1 181239Z 24009KT 15/11 A2991 RMK A01 T01480112  RH  079%=      5-min Rain = 0
KSB1 181240Z 24009KT 15/11 A2991 RMK A01 T01490112  RH  079%=      5-min Rain = 0
KSB1 181241Z 24009KT 15/11 A2991 RMK A01 T01490113  RH  079%=      5-min Rain = 0
KSB1 181242Z 24009KT 15/11 A2991 RMK A01 T01490112  RH  079%=      5-min Rain = 0
KSB1 181243Z 24009KT 15/11 A2991 RMK A01 T01490112  RH  079%=      5-min Rain = 0
KSB1 181244Z 23009KT 15/11 A2991 RMK A01 T01490113  RH  079%=      5-min Rain = 0
KSB1 181245Z 23010KT 15/11 A2991 RMK A01 T01490112  RH  079%=      5-min Rain = 0
KSB1 181246Z 23010KT 15/11 A2991 RMK A01 T01490113  RH  079%=      5-min Rain = 0
KSB1 181247Z 23010KT 15/11 A2991 RMK A01 T01500113  RH  078%=      5-min Rain = 0
KSB1 181248Z 23010KT 15/11 A2991 RMK A01 T01500113  RH  078%=      5-min Rain = 0
KSB1 181249Z 24009KT 15/11 A2991 RMK A01 T01500113  RH  078%=      5-min Rain = 0
KSB1 181250Z 23010KT 15/11 A2991 RMK A01 T01500113  RH  078%=      5-min Rain = 0
KSB1 181251Z 23010KT 15/11 A2991 RMK A01 T01500113  RH  078%=      5-min Rain = 0
KSB1 181252Z 23010KT 15/11 A2991 RMK A01 T01500113  RH  078%=      5-min Rain = 0
KSB1 181253Z 23011KT 15/11 A2991 RMK A01 T01510113  RH  078%=      5-min Rain = 0
KSB1 181254Z 23010KT 15/11 A2991 RMK A01 T01510114  RH  078%=      5-min Rain = 0
KSB1 181255Z 23009KT 15/11 A2991 RMK A01 T01500113  RH  079%=      5-min Rain = 0
KSB1 181256Z 23010KT 15/11 A2991 RMK A01 T01500113  RH  079%=      5-min Rain = 0
KSB1 181257Z 23010KT 15/11 A2991 RMK A01 T01500114  RH  079%=      5-min Rain = 0
KSB1 181258Z 23009KT 15/11 A2991 RMK A01 T01510114  RH  079%=      5-min Rain = 0
KSB1 181259Z 23009KT 15/11 A2991 RMK A01 T01510114  RH  078%=      5-min Rain = 0
KSB1 181300Z 23009KT 15/11 A2991 RMK A01 T01510113  RH  078%=      5-min Rain = 0
KSB1 181301Z 23009KT 15/11 A2991 RMK A01 T01510114  RH  078%=      5-min Rain = 0
KSB1 181302Z 23009KT 15/11 A2991 RMK A01 T01500114  RH  079%=      5-min Rain = 0
KSB1 181303Z 23009KT 15/11 A2991 RMK A01 T01510114  RH  079%=      5-min Rain = 0
KSB1 181304Z 23009KT 15/11 A2991 RMK A01 T01510114  RH  079%=      5-min Rain = 0
KSB1 181305Z 23009KT 15/11 A2991 RMK A01 T01510114  RH  079%=      5-min Rain = 0
KSB1 181306Z 24009KT 15/11 A2991 RMK A01 T01510114  RH  079%=      5-min Rain = 0
KSB1 181307Z 23010KT 15/11 A2991 RMK A01 T01500114  RH  079%=      5-min Rain = 0
KSB1 181308Z 23010KT 15/11 A2991 RMK A01 T01500114  RH  079%=      5-min Rain = 0
KSB1 181309Z 23009KT 15/11 A2991 RMK A01 T01500113  RH  079%=      5-min Rain = 0
KSB1 181310Z 23009KT 15/11 A2991 RMK A01 T01500113  RH  079%=      5-min Rain = 0
KSB1 181311Z 23009KT 15/11 A2991 RMK A01 T01510113  RH  078%=      5-min Rain = 0
KSB1 181312Z 24009KT 15/11 A2991 RMK A01 T01510113  RH  078%=      5-min Rain = 0
KSB1 181313Z 23009KT 15/11 A2991 RMK A01 T01510114  RH  078%=      5-min Rain = 0
KSB1 181314Z 24009KT 15/11 A2991 RMK A01 T01520113  RH  078%=      5-min Rain = 0
KSB1 181315Z 24009KT 15/11 A2991 RMK A01 T01520114  RH  078%=      5-min Rain = 0
KSB1 181316Z 23010KT 15/11 A2991 RMK A01 T01520114  RH  078%=      5-min Rain = 0
KSB1 181317Z 23009KT 15/12 A2991 RMK A01 T01540115  RH  077%=      5-min Rain = 0
KSB1 181318Z 23010KT 16/11 A2991 RMK A01 T01550114  RH  077%=      5-min Rain = 0
KSB1 181319Z 23010KT 16/11 A2991 RMK A01 T01550114  RH  076%=      5-min Rain = 0
KSB1 181320Z 23010KT 16/11 A2991 RMK A01 T01560114  RH  076%=      5-min Rain = 0
KSB1 181321Z 23009KT 16/11 A2991 RMK A01 T01560114  RH  076%=      5-min Rain = 0
KSB1 181322Z 23009KT 16/12 A2991 RMK A01 T01570115  RH  076%=      5-min Rain = 0
KSB1 181323Z 24010KT 16/12 A2992 RMK A01 T01570115  RH  076%=      5-min Rain = 0
KSB1 181324Z 24010KT 16/12 A2992 RMK A01 T01570115  RH  076%=      5-min Rain = 0
KSB1 181325Z 23011KT 16/12 A2991 RMK A01 T01580115  RH  076%=      5-min Rain = 0
KSB1 181326Z 23010KT 16/12 A2991 RMK A01 T01600115  RH  075%=      5-min Rain = 0
KSB1 181327Z 24010KT 16/11 A2991 RMK A01 T01600114  RH  074%=      5-min Rain = 0
KSB1 181328Z 24008KT 16/11 A2991 RMK A01 T01600114  RH  074%=      5-min Rain = 0
KSB1 181329Z 24008KT 16/11 A2992 RMK A01 T01590114  RH  075%=      5-min Rain = 0
KSB1 181330Z 24008KT 16/11 A2992 RMK A01 T01580114  RH  075%=      5-min Rain = 0
KSB1 181331Z 24008KT 16/11 A2992 RMK A01 T01580114  RH  075%=      5-min Rain = 0
KSB1 181332Z 24010KT 16/11 A2992 RMK A01 T01590114  RH  075%=      5-min Rain = 0
KSB1 181333Z 23009KT 16/11 A2992 RMK A01 T01590114  RH  075%=      5-min Rain = 0
KSB1 181334Z 22010KT 16/11 A2992 RMK A01 T01600114  RH  074%=      5-min Rain = 0
KSB1 181335Z 22009KT 16/11 A2992 RMK A01 T01610114  RH  074%=      5-min Rain = 0
KSB1 181336Z 22009KT 16/11 A2992 RMK A01 T01620114  RH  073%=      5-min Rain = 0
KSB1 181337Z 23009KT 16/11 A2992 RMK A01 T01630114  RH  073%=      5-min Rain = 0
KSB1 181338Z 22007KT 16/11 A2992 RMK A01 T01640114  RH  073%=      5-min Rain = 0
KSB1 181339Z 22009KT 16/12 A2992 RMK A01 T01640115  RH  073%=      5-min Rain = 0
KSB1 181340Z 22010KT 16/12 A2992 RMK A01 T01640115  RH  072%=      5-min Rain = 0
KSB1 181341Z 22009KT 17/12 A2992 RMK A01 T01660115  RH  072%=      5-min Rain = 0
KSB1 181342Z 22009KT 17/12 A2992 RMK A01 T01660115  RH  072%=      5-min Rain = 0
KSB1 181343Z 22008KT 17/12 A2992 RMK A01 T01670116  RH  072%=      5-min Rain = 0
KSB1 181344Z 22006KT 17/12 A2992 RMK A01 T01670116  RH  072%=      5-min Rain = 0
KSB1 181345Z 22006KT 17/12 A2992 RMK A01 T01680116  RH  072%=      5-min Rain = 0
KSB1 181346Z 22007KT 17/12 A2992 RMK A01 T01680116  RH  072%=      5-min Rain = 0
KSB1 181347Z 22008KT 17/12 A2992 RMK A01 T01680116  RH  072%=      5-min Rain = 0
KSB1 181348Z 22007KT 17/12 A2992 RMK A01 T01680116  RH  071%=      5-min Rain = 0
KSB1 181349Z 22006KT 17/12 A2992 RMK A01 T01690116  RH  071%=      5-min Rain = 0
KSB1 181350Z 22006KT 17/12 A2992 RMK A01 T01700117  RH  071%=      5-min Rain = 0
KSB1 181351Z 21006KT 17/12 A2992 RMK A01 T01700117  RH  071%=      5-min Rain = 0
KSB1 181352Z 21006KT 17/12 A2992 RMK A01 T01710117  RH  070%=      5-min Rain = 0
KSB1 181353Z 21005KT 17/12 A2992 RMK A01 T01710116  RH  070%=      5-min Rain = 0
KSB1 181354Z 21006KT 17/12 A2992 RMK A01 T01710117  RH  070%=      5-min Rain = 0
KSB1 181355Z 20006KT 17/12 A2992 RMK A01 T01720118  RH  070%=      5-min Rain = 0
KSB1 181356Z 21006KT 17/12 A2992 RMK A01 T01730118  RH  070%=      5-min Rain = 0
KSB1 181357Z 22006KT 17/12 A2992 RMK A01 T01730118  RH  070%=      5-min Rain = 0
KSB1 181358Z 22006KT 17/12 A2992 RMK A01 T01740119  RH  070%=      5-min Rain = 0
KSB1 181359Z 21006KT 18/12 A2992 RMK A01 T01750119  RH  070%=      5-min Rain = 0
KSB1 181400Z 21007KT 18/12 A2992 RMK A01 T01750119  RH  069%=      5-min Rain = 0
KSB1 181401Z 21007KT 18/12 A2991 RMK A01 T01750119  RH  069%=      5-min Rain = 0
KSB1 181402Z 21006KT 18/12 A2992 RMK A01 T01750119  RH  069%=      5-min Rain = 0
KSB1 181403Z 21006KT 18/12 A2992 RMK A01 T01770120  RH  069%=      5-min Rain = 0
KSB1 181404Z 22007KT 18/12 A2992 RMK A01 T01770120  RH  069%=      5-min Rain = 0
KSB1 181405Z 22008KT 18/12 A2992 RMK A01 T01780119  RH  069%=      5-min Rain = 0
KSB1 181406Z 23007KT 18/12 A2992 RMK A01 T01780118  RH  068%=      5-min Rain = 0
KSB1 181407Z 23006KT 18/12 A2992 RMK A01 T01770119  RH  068%=      5-min Rain = 0
KSB1 181408Z 23006KT 18/12 A2992 RMK A01 T01770118  RH  069%=      5-min Rain = 0
KSB1 181409Z 22005KT 18/12 A2992 RMK A01 T01770119  RH  069%=      5-min Rain = 0
KSB1 181410Z 22007KT 18/12 A2992 RMK A01 T01770119  RH  069%=      5-min Rain = 0
KSB1 181411Z 22006KT 18/12 A2992 RMK A01 T01770120  RH  069%=      5-min Rain = 0
KSB1 181412Z 23006KT 18/12 A2992 RMK A01 T01780119  RH  068%=      5-min Rain = 0
KSB1 181413Z 23007KT 18/12 A2992 RMK A01 T01780119  RH  068%=      5-min Rain = 0
KSB1 181414Z 23007KT 18/12 A2992 RMK A01 T01780118  RH  068%=      5-min Rain = 0
KSB1 181415Z 22006KT 18/12 A2992 RMK A01 T01790120  RH  068%=      5-min Rain = 0
KSB1 181416Z 22006KT 18/12 A2992 RMK A01 T01790120  RH  068%=      5-min Rain = 0
KSB1 181417Z 22006KT 18/12 A2992 RMK A01 T01800121  RH  068%=      5-min Rain = 0
KSB1 181418Z 22007KT 18/12 A2992 RMK A01 T01810121  RH  068%=      5-min Rain = 0
KSB1 181419Z 22006KT 18/12 A2992 RMK A01 T01810121  RH  068%=      5-min Rain = 0
KSB1 181420Z 22007KT 18/12 A2992 RMK A01 T01820122  RH  068%=      5-min Rain = 0
KSB1 181421Z 22007KT 18/12 A2992 RMK A01 T01830122  RH  067%=      5-min Rain = 0
KSB1 181422Z 22008KT 18/12 A2992 RMK A01 T01830121  RH  067%=      5-min Rain = 0
KSB1 181423Z 22007KT 18/12 A2992 RMK A01 T01830121  RH  067%=      5-min Rain = 0
KSB1 181424Z 22008KT 18/12 A2992 RMK A01 T01830120  RH  067%=      5-min Rain = 0
KSB1 181425Z 22007KT 18/12 A2992 RMK A01 T01830120  RH  067%=      5-min Rain = 0
KSB1 181426Z 22007KT 18/12 A2992 RMK A01 T01830121  RH  067%=      5-min Rain = 0
KSB1 181427Z 22006KT 18/12 A2992 RMK A01 T01840122  RH  067%=      5-min Rain = 0
KSB1 181428Z 23006KT 19/12 A2992 RMK A01 T01850122  RH  067%=      5-min Rain = 0
KSB1 181429Z 23007KT 19/12 A2992 RMK A01 T01850120  RH  066%=      5-min Rain = 0
KSB1 181430Z 22007KT 19/12 A2992 RMK A01 T01850120  RH  066%=      5-min Rain = 0
KSB1 181431Z 22006KT 19/12 A2992 RMK A01 T01850121  RH  066%=      5-min Rain = 0
KSB1 181432Z 22007KT 19/12 A2992 RMK A01 T01850122  RH  066%=      5-min Rain = 0
KSB1 181433Z 22007KT 19/12 A2992 RMK A01 T01860121  RH  066%=      5-min Rain = 0
KSB1 181434Z 22007KT 19/12 A2993 RMK A01 T01860120  RH  065%=      5-min Rain = 0
KSB1 181435Z 22006KT 19/12 A2993 RMK A01 T01870122  RH  066%=      5-min Rain = 0
KSB1 181436Z 22008KT 19/12 A2993 RMK A01 T01870121  RH  065%=      5-min Rain = 0
KSB1 181437Z 22007KT 19/12 A2993 RMK A01 T01870120  RH  065%=      5-min Rain = 0
KSB1 181438Z 22008KT 19/12 A2993 RMK A01 T01870121  RH  065%=      5-min Rain = 0
KSB1 181439Z 22008KT 19/12 A2993 RMK A01 T01870120  RH  065%=      5-min Rain = 0
KSB1 181440Z 22008KT 19/12 A2993 RMK A01 T01880121  RH  065%=      5-min Rain = 0
KSB1 181441Z 22009KT 19/12 A2993 RMK A01 T01880120  RH  065%=      5-min Rain = 0
KSB1 181442Z 22009KT 19/12 A2993 RMK A01 T01880122  RH  065%=      5-min Rain = 0
KSB1 181443Z 22009KT 19/12 A2993 RMK A01 T01900122  RH  065%=      5-min Rain = 0
KSB1 181444Z 22008KT 19/12 A2993 RMK A01 T01900121  RH  064%=      5-min Rain = 0
KSB1 181445Z 21009KT 19/12 A2993 RMK A01 T01900120  RH  064%=      5-min Rain = 0
KSB1 181446Z 22009KT 19/12 A2993 RMK A01 T01900121  RH  064%=      5-min Rain = 0
KSB1 181447Z 22008KT 19/12 A2993 RMK A01 T01910121  RH  064%=      5-min Rain = 0
KSB1 181448Z 22009KT 19/12 A2993 RMK A01 T01910120  RH  063%=      5-min Rain = 0
KSB1 181449Z 22008KT 19/12 A2993 RMK A01 T01910120  RH  064%=      5-min Rain = 0
KSB1 181450Z 22009KT 19/12 A2993 RMK A01 T01910121  RH  064%=      5-min Rain = 0
KSB1 181451Z 22010KT 19/12 A2993 RMK A01 T01920121  RH  063%=      5-min Rain = 0
KSB1 181452Z 22008KT 19/12 A2993 RMK A01 T01920120  RH  063%=      5-min Rain = 0
KSB1 181453Z 23009KT 19/12 A2993 RMK A01 T01920121  RH  063%=      5-min Rain = 0
KSB1 181454Z 23010KT 19/12 A2993 RMK A01 T01920120  RH  063%=      5-min Rain = 0
KSB1 181455Z 22009KT 19/12 A2993 RMK A01 T01920120  RH  063%=      5-min Rain = 0
KSB1 181456Z 21010KT 19/12 A2993 RMK A01 T01920121  RH  063%=      5-min Rain = 0
KSB1 181457Z 22011KT 19/12 A2993 RMK A01 T01920120  RH  063%=      5-min Rain = 0
KSB1 181458Z 22010KT 19/12 A2993 RMK A01 T01920121  RH  063%=      5-min Rain = 0
KSB1 181459Z 22010KT 19/12 A2993 RMK A01 T01920120  RH  063%=      5-min Rain = 0
KSB1 181500Z 21011KT 19/12 A2993 RMK A01 T01920120  RH  063%=      5-min Rain = 0
KSB1 181501Z 21011KT 19/12 A2993 RMK A01 T01920120  RH  063%=      5-min Rain = 0
KSB1 181502Z 22011KT 19/12 A2993 RMK A01 T01920120  RH  063%=      5-min Rain = 0
KSB1 181503Z 22011KT 19/12 A2993 RMK A01 T01920120  RH  063%=      5-min Rain = 0
KSB1 181504Z 22011KT 19/12 A2993 RMK A01 T01920120  RH  063%=      5-min Rain = 0
KSB1 181505Z 22010KT 19/12 A2993 RMK A01 T01930121  RH  063%=      5-min Rain = 0
KSB1 181506Z 22010KT 19/12 A2993 RMK A01 T01930121  RH  063%=      5-min Rain = 0
KSB1 181507Z 21009KT 19/12 A2993 RMK A01 T01940122  RH  063%=      5-min Rain = 0
KSB1 181508Z 22011KT 20/12 A2993 RMK A01 T01950122  RH  063%=      5-min Rain = 0
KSB1 181509Z 22011KT 20/12 A2993 RMK A01 T01950120  RH  062%=      5-min Rain = 0
KSB1 181510Z 21011KT 20/12 A2993 RMK A01 T01950121  RH  062%=      5-min Rain = 0
KSB1 181511Z 20012KT 19/12 A2993 RMK A01 T01940119  RH  062%=      5-min Rain = 0
KSB1 181512Z 21009KT 19/12 A2993 RMK A01 T01930119  RH  062%=      5-min Rain = 0
KSB1 181513Z 22009KT 19/12 A2993 RMK A01 T01940123  RH  063%=      5-min Rain = 0
KSB1 181514Z 22012KT 20/12 A2993 RMK A01 T01950121  RH  062%=      5-min Rain = 0
KSB1 181515Z 22009KT 20/12 A2993 RMK A01 T01950121  RH  062%=      5-min Rain = 0
KSB1 181516Z 21010KT 20/12 A2993 RMK A01 T01950121  RH  062%=      5-min Rain = 0
KSB1 181517Z 22010KT 20/12 A2993 RMK A01 T01950121  RH  062%=      5-min Rain = 0
KSB1 181518Z 22011KT 20/12 A2993 RMK A01 T01960121  RH  062%=      5-min Rain = 0
KSB1 181519Z 22011KT 20/12 A2993 RMK A01 T01950120  RH  062%=      5-min Rain = 0
KSB1 181520Z 22011KT 19/12 A2993 RMK A01 T01940120  RH  062%=      5-min Rain = 0
KSB1 181521Z 23009KT 19/12 A2993 RMK A01 T01940121  RH  062%=      5-min Rain = 0
KSB1 181522Z 23009KT 20/12 A2993 RMK A01 T01950122  RH  062%=      5-min Rain = 0
KSB1 181523Z 22011KT 20/12 A2993 RMK A01 T01960121  RH  062%=      5-min Rain = 0
KSB1 181524Z 22010KT 20/12 A2993 RMK A01 T01960120  RH  061%=      5-min Rain = 0
KSB1 181525Z 22009KT 20/12 A2993 RMK A01 T01950121  RH  062%=      5-min Rain = 0
KSB1 181526Z 22010KT 20/12 A2993 RMK A01 T01960121  RH  062%=      5-min Rain = 0
KSB1 181527Z 22010KT 20/12 A2993 RMK A01 T01960121  RH  062%=      5-min Rain = 0
KSB1 181528Z 21010KT 20/12 A2993 RMK A01 T01960121  RH  062%=      5-min Rain = 0
KSB1 181529Z 21009KT 20/12 A2993 RMK A01 T01960121  RH  062%=      5-min Rain = 0
KSB1 181530Z 21010KT 20/12 A2993 RMK A01 T01960122  RH  062%=      5-min Rain = 0
KSB1 181531Z 21009KT 20/12 A2993 RMK A01 T01960121  RH  062%=      5-min Rain = 0
KSB1 181532Z 22009KT 20/12 A2993 RMK A01 T01970123  RH  062%=      5-min Rain = 0
KSB1 181533Z 23008KT 20/12 A2993 RMK A01 T01990124  RH  062%=      5-min Rain = 0
KSB1 181534Z 23009KT 20/12 A2993 RMK A01 T02000124  RH  062%=      5-min Rain = 0
KSB1 181535Z 23008KT 20/12 A2993 RMK A01 T02000124  RH  062%=      5-min Rain = 0
KSB1 181536Z 23008KT 20/13 A2993 RMK A01 T02010125  RH  061%=      5-min Rain = 0
KSB1 181537Z 23007KT 20/13 A2993 RMK A01 T02020125  RH  061%=      5-min Rain = 0
KSB1 181538Z 24008KT 20/12 A2993 RMK A01 T02030124  RH  060%=      5-min Rain = 0
KSB1 181539Z 23008KT 20/13 A2993 RMK A01 T02030125  RH  061%=      5-min Rain = 0
KSB1 181540Z 22008KT 20/13 A2993 RMK A01 T02040125  RH  060%=      5-min Rain = 0
KSB1 181541Z 22009KT 20/12 A2993 RMK A01 T02040124  RH  060%=      5-min Rain = 0
KSB1 181542Z 23009KT 20/13 A2993 RMK A01 T02040125  RH  060%=      5-min Rain = 0
KSB1 181543Z 23010KT 20/12 A2993 RMK A01 T02040122  RH  059%=      5-min Rain = 0
KSB1 181544Z 23009KT 20/12 A2993 RMK A01 T02030121  RH  060%=      5-min Rain = 0
KSB1 181545Z 22009KT 20/12 A2993 RMK A01 T02020123  RH  060%=      5-min Rain = 0
KSB1 181546Z 23010KT 20/12 A2993 RMK A01 T02020123  RH  060%=      5-min Rain = 0
KSB1 181547Z 23010KT 20/12 A2993 RMK A01 T02030121  RH  059%=      5-min Rain = 0
KSB1 181548Z 23011KT 20/12 A2993 RMK A01 T02040121  RH  059%=      5-min Rain = 0
KSB1 181549Z 23010KT 20/12 A2993 RMK A01 T02030121  RH  059%=      5-min Rain = 0
KSB1 181550Z 23009KT 20/12 A2994 RMK A01 T02030123  RH  060%=      5-min Rain = 0
KSB1 181551Z 24009KT 20/12 A2994 RMK A01 T02040123  RH  059%=      5-min Rain = 0
KSB1 181552Z 22010KT 21/12 A2993 RMK A01 T02050123  RH  059%=      5-min Rain = 0
KSB1 181553Z 22009KT 21/12 A2993 RMK A01 T02050123  RH  059%=      5-min Rain = 0
KSB1 181554Z 23010KT 21/12 A2993 RMK A01 T02060122  RH  058%=      5-min Rain = 0
KSB1 181555Z 23008KT 21/12 A2994 RMK A01 T02060120  RH  058%=      5-min Rain = 0
KSB1 181556Z 23007KT 21/12 A2994 RMK A01 T02050122  RH  059%=      5-min Rain = 0
KSB1 181557Z 22008KT 21/12 A2994 RMK A01 T02070124  RH  059%=      5-min Rain = 0
KSB1 181558Z 22009KT 21/12 A2994 RMK A01 T02090123  RH  058%=      5-min Rain = 0
KSB1 181559Z 22009KT 21/12 A2994 RMK A01 T02090123  RH  058%=      5-min Rain = 0
KSB1 181600Z 23006KT 21/12 A2994 RMK A01 T02100123  RH  057%=      5-min Rain = 0
KSB1 181601Z 22006KT 21/12 A2994 RMK A01 T02100124  RH  058%=      5-min Rain = 0
KSB1 181602Z 22009KT 21/12 A2994 RMK A01 T02110124  RH  057%=      5-min Rain = 0
KSB1 181603Z 23006KT 21/13 A2994 RMK A01 T02120125  RH  058%=      5-min Rain = 0
KSB1 181604Z 22007KT 21/13 A2994 RMK A01 T02130126  RH  057%=      5-min Rain = 0
KSB1 181605Z 22010KT 21/12 A2994 RMK A01 T02140123  RH  056%=      5-min Rain = 0
KSB1 181606Z 21009KT 21/12 A2994 RMK A01 T02140124  RH  057%=      5-min Rain = 0
KSB1 181607Z 22009KT 21/12 A2994 RMK A01 T02130122  RH  056%=      5-min Rain = 0
KSB1 181608Z 23009KT 21/12 A2994 RMK A01 T02120122  RH  056%=      5-min Rain = 0
KSB1 181609Z 24007KT 21/12 A2994 RMK A01 T02110121  RH  056%=      5-min Rain = 0
KSB1 181610Z 23007KT 21/12 A2993 RMK A01 T02110122  RH  057%=      5-min Rain = 0
KSB1 181611Z 23008KT 21/12 A2993 RMK A01 T02130122  RH  056%=      5-min Rain = 0
KSB1 181612Z 21009KT 21/12 A2993 RMK A01 T02140122  RH  056%=      5-min Rain = 0
KSB1 181613Z 22008KT 21/12 A2993 RMK A01 T02140121  RH  056%=      5-min Rain = 0
KSB1 181614Z 22010KT 21/12 A2993 RMK A01 T02140122  RH  056%=      5-min Rain = 0
KSB1 181615Z 22009KT 22/12 A2993 RMK A01 T02150122  RH  055%=      5-min Rain = 0
KSB1 181616Z 23008KT 22/12 A2993 RMK A01 T02150122  RH  055%=      5-min Rain = 0
KSB1 181617Z 24007KT 21/12 A2993 RMK A01 T02140121  RH  055%=      5-min Rain = 0
KSB1 181618Z 23008KT 22/13 A2993 RMK A01 T02150125  RH  056%=      5-min Rain = 0
KSB1 181619Z 23009KT 22/12 A2993 RMK A01 T02170123  RH  055%=      5-min Rain = 0
KSB1 181620Z 24007KT 22/12 A2993 RMK A01 T02170120  RH  054%=      5-min Rain = 0
KSB1 181621Z 23006KT 22/12 A2993 RMK A01 T02170123  RH  055%=      5-min Rain = 0
KSB1 181622Z 24008KT 22/12 A2993 RMK A01 T02190124  RH  055%=      5-min Rain = 0
KSB1 181623Z 24007KT 22/12 A2993 RMK A01 T02200121  RH  053%=      5-min Rain = 0
KSB1 181624Z 24009KT 22/12 A2993 RMK A01 T02210121  RH  053%=      5-min Rain = 0
KSB1 181625Z 25008KT 22/12 A2993 RMK A01 T02200119  RH  052%=      5-min Rain = 0
KSB1 181626Z 25008KT 22/12 A2993 RMK A01 T02210120  RH  053%=      5-min Rain = 0
KSB1 181627Z 24008KT 22/12 A2993 RMK A01 T02220117  RH  051%=      5-min Rain = 0
KSB1 181628Z 23009KT 22/12 A2993 RMK A01 T02220119  RH  052%=      5-min Rain = 0
KSB1 181629Z 24008KT 22/12 A2993 RMK A01 T02230118  RH  051%=      5-min Rain = 0
KSB1 181630Z 24009KT 22/12 A2993 RMK A01 T02230118  RH  052%=      5-min Rain = 0
KSB1 181631Z 24008KT 22/12 A2993 RMK A01 T02230120  RH  052%=      5-min Rain = 0
KSB1 181632Z 24008KT 23/12 A2993 RMK A01 T02250121  RH  052%=      5-min Rain = 0
KSB1 181633Z 22007KT 23/12 A2993 RMK A01 T02270121  RH  051%=      5-min Rain = 0
KSB1 181634Z 21009KT 23/12 A2993 RMK A01 T02300123  RH  051%=      5-min Rain = 0
KSB1 181635Z 21008KT 23/12 A2993 RMK A01 T02270122  RH  051%=      5-min Rain = 0
KSB1 181636Z 22008KT 23/12 A2993 RMK A01 T02280124  RH  052%=      5-min Rain = 0
KSB1 181637Z 22006KT 23/12 A2993 RMK A01 T02280123  RH  051%=      5-min Rain = 0
KSB1 181638Z 22009KT 23/12 A2993 RMK A01 T02290124  RH  052%=      5-min Rain = 0
KSB1 181639Z 22010KT 23/12 A2993 RMK A01 T02290122  RH  051%=      5-min Rain = 0
KSB1 181640Z 22008KT 23/12 A2993 RMK A01 T02270118  RH  050%=      5-min Rain = 0
KSB1 181641Z 22007KT 23/12 A2993 RMK A01 T02250121  RH  052%=      5-min Rain = 0
KSB1 181642Z 22007KT 23/12 A2993 RMK A01 T02260119  RH  051%=      5-min Rain = 0
KSB1 181643Z 22008KT 23/12 A2993 RMK A01 T02260119  RH  051%=      5-min Rain = 0
KSB1 181644Z 22008KT 23/12 A2993 RMK A01 T02270117  RH  050%=      5-min Rain = 0
KSB1 181645Z 21009KT 23/12 A2993 RMK A01 T02280115  RH  049%=      5-min Rain = 0
KSB1 181646Z 24010KT 23/12 A2993 RMK A01 T02280116  RH  049%=      5-min Rain = 0
KSB1 181647Z 26012KT 23/11 A2993 RMK A01 T02300108  RH  046%=      5-min Rain = 0
KSB1 181648Z 25010KT 23/10 A2992 RMK A01 T02320099  RH  043%=      5-min Rain = 0
KSB1 181649Z 25013KT 23/10 A2993 RMK A01 T02330101  RH  043%=      5-min Rain = 0
KSB1 181650Z 24012KT 24/10 A2992 RMK A01 T02360104  RH  043%=      5-min Rain = 0
KSB1 181651Z 24012KT 24/10 A2992 RMK A01 T02380104  RH  043%=      5-min Rain = 0
KSB1 181652Z 25012KT 24/10 A2992 RMK A01 T02380103  RH  042%=      5-min Rain = 0
KSB1 181653Z 25013G19KT 24/10 A2992 RMK A01 T02380103  RH  042%=      5-min Rain = 0
KSB1 181654Z 26014G20KT 24/10 A2993 RMK A01 T02380102  RH  042%=      5-min Rain = 0
KSB1 181655Z 25012KT 24/10 A2993 RMK A01 T02370101  RH  042%=      5-min Rain = 0
KSB1 181656Z 25013KT 24/10 A2992 RMK A01 T02360101  RH  042%=      5-min Rain = 0
KSB1 181657Z 26011KT 24/10 A2992 RMK A01 T02360101  RH  042%=      5-min Rain = 0
KSB1 181658Z 28012KT 24/10 A2992 RMK A01 T02370101  RH  042%=      5-min Rain = 0
KSB1 181659Z 27009G14KT 24/10 A2992 RMK A01 T02370102  RH  042%=      5-min Rain = 0
KSB1 181700Z 27008KT 24/10 A2992 RMK A01 T02390103  RH  042%=      5-min Rain = 0
KSB1 181701Z 27010KT 24/10 A2992 RMK A01 T02410103  RH  042%=      5-min Rain = 0
KSB1 181702Z 26014G19KT 24/10 A2992 RMK A01 T02410102  RH  041%=      5-min Rain = 0
KSB1 181703Z 25014KT 24/10 A2992 RMK A01 T02390102  RH  042%=      5-min Rain = 0
KSB1 181704Z 25011KT 24/10 A2992 RMK A01 T02380103  RH  043%=      5-min Rain = 0
KSB1 181705Z 26015KT 24/10 A2992 RMK A01 T02400103  RH  042%=      5-min Rain = 0
KSB1 181706Z 25012KT 24/10 A2993 RMK A01 T02400102  RH  042%=      5-min Rain = 0
KSB1 181707Z 24013KT 24/10 A2992 RMK A01 T02400101  RH  041%=      5-min Rain = 0
KSB1 181708Z 25015KT 24/10 A2992 RMK A01 T02400101  RH  041%=      5-min Rain = 0
KSB1 181709Z 25013KT 24/10 A2992 RMK A01 T02400103  RH  042%=      5-min Rain = 0
KSB1 181710Z 25013KT 24/10 A2992 RMK A01 T02410104  RH  042%=      5-min Rain = 0
KSB1 181711Z 25014KT 24/10 A2992 RMK A01 T02410103  RH  042%=      5-min Rain = 0
KSB1 181712Z 23014KT 24/10 A2992 RMK A01 T02400103  RH  042%=      5-min Rain = 0
KSB1 181713Z 22015KT 24/10 A2992 RMK A01 T02380104  RH  043%=      5-min Rain = 0
KSB1 181714Z 24012KT 24/11 A2992 RMK A01 T02380105  RH  043%=      5-min Rain = 0
KSB1 181715Z 26011KT 24/11 A2992 RMK A01 T02390105  RH  043%=      5-min Rain = 0
KSB1 181716Z 24014KT 24/11 A2992 RMK A01 T02400107  RH  043%=      5-min Rain = 0
KSB1 181717Z 25011KT 24/11 A2992 RMK A01 T02420107  RH  043%=      5-min Rain = 0
KSB1 181718Z 25010KT 24/10 A2992 RMK A01 T02420102  RH  041%=      5-min Rain = 0
KSB1 181719Z 26009KT 24/11 A2992 RMK A01 T02390105  RH  043%=      5-min Rain = 0
KSB1 181720Z 27011G16KT 24/10 A2992 RMK A01 T02410104  RH  042%=      5-min Rain = 0
KSB1 181721Z 27009KT 24/10 A2992 RMK A01 T02420104  RH  042%=      5-min Rain = 0
KSB1 181722Z 27011G17KT 24/11 A2992 RMK A01 T02410105  RH  042%=      5-min Rain = 0
KSB1 181723Z 27013G18KT 24/10 A2992 RMK A01 T02400104  RH  042%=      5-min Rain = 0
KSB1 181724Z 27009KT 24/10 A2993 RMK A01 T02360104  RH  043%=      5-min Rain = 0
KSB1 181725Z 28009KT 23/10 A2992 RMK A01 T02330103  RH  044%=      5-min Rain = 0
KSB1 181726Z 26009KT 23/11 A2992 RMK A01 T02330105  RH  044%=      5-min Rain = 0
KSB1 181727Z 25009KT 23/11 A2992 RMK A01 T02330108  RH  045%=      5-min Rain = 0
KSB1 181728Z 28008KT 23/11 A2992 RMK A01 T02330106  RH  044%=      5-min Rain = 0
KSB1 181729Z 28007KT 23/11 A2992 RMK A01 T02320105  RH  044%=      5-min Rain = 0
KSB1 181730Z 28011KT 23/11 A2992 RMK A01 T02310105  RH  045%=      5-min Rain = 0
KSB1 181731Z 28010KT 23/11 A2992 RMK A01 T02310106  RH  045%=      5-min Rain = 0
KSB1 181732Z 27013KT 23/10 A2992 RMK A01 T02310103  RH  044%=      5-min Rain = 0
KSB1 181733Z 26010KT 23/10 A2992 RMK A01 T02300103  RH  044%=      5-min Rain = 0
KSB1 181734Z 27009KT 23/10 A2992 RMK A01 T02300104  RH  045%=      5-min Rain = 0
KSB1 181735Z 27013G18KT 23/11 A2992 RMK A01 T02320105  RH  045%=      5-min Rain = 0
KSB1 181736Z 25011KT 23/10 A2992 RMK A01 T02320103  RH  044%=      5-min Rain = 0
KSB1 181737Z 26013KT 23/10 A2992 RMK A01 T02320104  RH  044%=      5-min Rain = 0
KSB1 181738Z 26012KT 24/11 A2992 RMK A01 T02350105  RH  044%=      5-min Rain = 0
KSB1 181739Z 26011KT 24/11 A2992 RMK A01 T02370105  RH  043%=      5-min Rain = 0
KSB1 181740Z 26012KT 24/11 A2992 RMK A01 T02380106  RH  043%=      5-min Rain = 0
KSB1 181741Z 25013KT 24/11 A2992 RMK A01 T02400106  RH  043%=      5-min Rain = 0
KSB1 181742Z 24009KT 24/11 A2992 RMK A01 T02420107  RH  042%=      5-min Rain = 0
KSB1 181743Z 26008KT 24/11 A2992 RMK A01 T02440107  RH  042%=      5-min Rain = 0
KSB1 181744Z 27012G17KT 25/11 A2992 RMK A01 T02450106  RH  041%=      5-min Rain = 0
KSB1 181745Z 27014KT 24/10 A2992 RMK A01 T02440100  RH  040%=      5-min Rain = 0
KSB1 181746Z 28012KT 24/10 A2992 RMK A01 T02420097  RH  040%=      5-min Rain = 0
KSB1 181747Z 27015G21KT 24/10 A2992 RMK A01 T02380096  RH  041%=      5-min Rain = 0
KSB1 181748Z 26017G23KT 24/10 A2992 RMK A01 T02360098  RH  042%=      5-min Rain = 0
KSB1 181749Z 26016KT 24/10 A2992 RMK A01 T02360097  RH  041%=      5-min Rain = 0
KSB1 181750Z 27014KT 24/10 A2992 RMK A01 T02370099  RH  042%=      5-min Rain = 0
KSB1 181751Z 27013KT 24/10 A2992 RMK A01 T02360099  RH  042%=      5-min Rain = 0
KSB1 181752Z 27011KT 24/10 A2992 RMK A01 T02350098  RH  042%=      5-min Rain = 0
KSB1 181753Z 28013KT 23/10 A2992 RMK A01 T02340097  RH  042%=      5-min Rain = 0
KSB1 181754Z 26012KT 24/10 A2992 RMK A01 T02360098  RH  042%=      5-min Rain = 0
KSB1 181755Z 25014KT 24/10 A2992 RMK A01 T02410098  RH  040%=      5-min Rain = 0
KSB1 181756Z 25014KT 24/10 A2992 RMK A01 T02410096  RH  040%=      5-min Rain = 0
KSB1 181757Z 25014KT 24/09 A2992 RMK A01 T02410093  RH  039%=      5-min Rain = 0
KSB1 181758Z 25015KT 24/10 A2991 RMK A01 T02420095  RH  039%=      5-min Rain = 0
KSB1 181759Z 25012KT 24/10 A2992 RMK A01 T02420096  RH  040%=      5-min Rain = 0
KSB1 181800Z 26010KT 24/10 A2992 RMK A01 T02420099  RH  040%=      5-min Rain = 0
KSB1 181801Z 27011KT 24/10 A2992 RMK A01 T02440101  RH  040%=      5-min Rain = 0
KSB1 181802Z 25009KT 24/10 A2991 RMK A01 T02440100  RH  040%=      5-min Rain = 0
KSB1 181803Z 25010KT 24/10 A2991 RMK A01 T02420100  RH  041%=      5-min Rain = 0
KSB1 181804Z 24011KT 24/10 A2991 RMK A01 T02440102  RH  041%=      5-min Rain = 0
KSB1 181805Z 23012KT 25/10 A2991 RMK A01 T02460104  RH  041%=      5-min Rain = 0
KSB1 181806Z 22011KT 25/10 A2991 RMK A01 T02470102  RH  040%=      5-min Rain = 0
KSB1 181807Z 22012KT 25/10 A2991 RMK A01 T02460102  RH  040%=      5-min Rain = 0
KSB1 181808Z 26014G23KT 25/10 A2991 RMK A01 T02460102  RH  040%=      5-min Rain = 0
KSB1 181809Z 27009KT 25/10 A2991 RMK A01 T02470098  RH  039%=      5-min Rain = 0
KSB1 181810Z 27011KT 25/10 A2991 RMK A01 T02480098  RH  039%=      5-min Rain = 0
KSB1 181811Z 25011G16KT 25/10 A2991 RMK A01 T02480099  RH  039%=      5-min Rain = 0
KSB1 181812Z 24012KT 25/10 A2991 RMK A01 T02490097  RH  038%=      5-min Rain = 0
KSB1 181813Z 24016KT 25/10 A2991 RMK A01 T02470097  RH  039%=      5-min Rain = 0
KSB1 181814Z 24015G21KT 25/10 A2991 RMK A01 T02480097  RH  038%=      5-min Rain = 0
KSB1 181815Z 24013KT 25/10 A2991 RMK A01 T02480095  RH  038%=      5-min Rain = 0
KSB1 181816Z 25013G21KT 25/10 A2991 RMK A01 T02460096  RH  039%=      5-min Rain = 0
KSB1 181817Z 26012KT 25/10 A2991 RMK A01 T02470096  RH  038%=      5-min Rain = 0
KSB1 181818Z 27013KT 25/10 A2991 RMK A01 T02460095  RH  038%=      5-min Rain = 0
KSB1 181819Z 26014KT 25/10 A2991 RMK A01 T02470095  RH  038%=      5-min Rain = 0
KSB1 181820Z 25015KT 25/10 A2991 RMK A01 T02470095  RH  038%=      5-min Rain = 0
KSB1 181821Z 24011G16KT 25/09 A2991 RMK A01 T02450091  RH  037%=      5-min Rain = 0
KSB1 181822Z 24014KT 24/09 A2991 RMK A01 T02420091  RH  038%=      5-min Rain = 0
KSB1 181823Z 25015KT 24/09 A2991 RMK A01 T02400091  RH  039%=      5-min Rain = 0
KSB1 181824Z 25009KT 24/09 A2991 RMK A01 T02390092  RH  039%=      5-min Rain = 0
KSB1 181825Z 28011KT 24/09 A2991 RMK A01 T02390093  RH  039%=      5-min Rain = 0
KSB1 181826Z 28014KT 24/09 A2991 RMK A01 T02390089  RH  038%=      5-min Rain = 0
KSB1 181827Z 28014KT 24/08 A2991 RMK A01 T02380084  RH  037%=      5-min Rain = 0
KSB1 181828Z 27013KT 24/08 A2991 RMK A01 T02370084  RH  038%=      5-min Rain = 0
KSB1 181829Z 29011KT 24/08 A2991 RMK A01 T02370083  RH  037%=      5-min Rain = 0
KSB1 181830Z 27011KT 24/08 A299 RMK A01 T02360079  RH  036%=      5-min Rain = 0
KSB1 181831Z 26012KT 24/08 A299 RMK A01 T02350078  RH  036%=      5-min Rain = 0
KSB1 181832Z 26014KT 24/08 A299 RMK A01 T02360081  RH  037%=      5-min Rain = 0
KSB1 181833Z 26016KT 24/08 A299 RMK A01 T02380079  RH  036%=      5-min Rain = 0
KSB1 181834Z 26011KT 24/08 A299 RMK A01 T02400077  RH  035%=      5-min Rain = 0
KSB1 181835Z 26011KT 24/08 A299 RMK A01 T02410078  RH  035%=      5-min Rain = 0
KSB1 181836Z 24012KT 25/08 A299 RMK A01 T02450082  RH  036%=      5-min Rain = 0
KSB1 181837Z 25013KT 25/08 A299 RMK A01 T02480081  RH  034%=      5-min Rain = 0
KSB1 181838Z 25015KT 25/08 A299 RMK A01 T02500082  RH  034%=      5-min Rain = 0
KSB1 181839Z 25018G23KT 25/08 A299 RMK A01 T02500081  RH  034%=      5-min Rain = 0
KSB1 181840Z 25020KT 25/08 A299 RMK A01 T02490083  RH  035%=      5-min Rain = 0
KSB1 181841Z 24015KT 25/08 A299 RMK A01 T02500083  RH  035%=      5-min Rain = 0
KSB1 181842Z 23017KT 25/08 A2989 RMK A01 T02510084  RH  035%=      5-min Rain = 0
KSB1 181843Z 25014G20KT 25/08 A299 RMK A01 T02500082  RH  034%=      5-min Rain = 0
KSB1 181844Z 25009KT 25/08 A299 RMK A01 T02490084  RH  035%=      5-min Rain = 0
KSB1 181845Z 24014G19KT 25/09 A299 RMK A01 T02520085  RH  035%=      5-min Rain = 0
KSB1 181846Z 25016KT 25/08 A299 RMK A01 T02530084  RH  034%=      5-min Rain = 0
KSB1 181847Z 25018KT 25/08 A2989 RMK A01 T02530080  RH  033%=      5-min Rain = 0
KSB1 181848Z 24018KT 25/08 A2989 RMK A01 T02520075  RH  032%=      5-min Rain = 0
KSB1 181849Z 24017G23KT 25/08 A2989 RMK A01 T02520075  RH  032%=      5-min Rain = 0
KSB1 181850Z 24019KT 25/07 A2989 RMK A01 T02520072  RH  032%=      5-min Rain = 0
KSB1 181851Z 26016KT 25/07 A2989 RMK A01 T02510073  RH  032%=      5-min Rain = 0
KSB1 181852Z 26012KT 25/08 A2989 RMK A01 T02510076  RH  033%=      5-min Rain = 0
KSB1 181853Z 23010KT 25/08 A2989 RMK A01 T02510080  RH  034%=      5-min Rain = 0
KSB1 181854Z 25018G24KT 26/08 A2989 RMK A01 T02550083  RH  033%=      5-min Rain = 0
KSB1 181855Z 25015KT 26/08 A2989 RMK A01 T02580081  RH  033%=      5-min Rain = 0
KSB1 181856Z 23014KT 26/08 A2989 RMK A01 T02580081  RH  032%=      5-min Rain = 0
KSB1 181857Z 24013KT 26/08 A2989 RMK A01 T02560080  RH  033%=      5-min Rain = 0
KSB1 181858Z 25012KT 26/08 A2989 RMK A01 T02550083  RH  034%=      5-min Rain = 0
KSB1 181859Z 27014KT 26/08 A2989 RMK A01 T02570080  RH  032%=      5-min Rain = 0
KSB1 181900Z 27013KT 26/08 A2989 RMK A01 T02570075  RH  031%=      5-min Rain = 0
KSB1 181901Z 29012KT 26/07 A2989 RMK A01 T02550074  RH  032%=      5-min Rain = 0
KSB1 181902Z 29012KT 25/08 A2989 RMK A01 T02540078  RH  033%=      5-min Rain = 0
KSB1 181903Z 27009KT 25/08 A2989 RMK A01 T02530078  RH  033%=      5-min Rain = 0
KSB1 181904Z 26013KT 25/08 A2989 RMK A01 T02540080  RH  033%=      5-min Rain = 0
KSB1 181905Z 24014KT 26/07 A2989 RMK A01 T02550073  RH  031%=      5-min Rain = 0
KSB1 181906Z 23016G24KT 26/07 A2988 RMK A01 T02550073  RH  031%=      5-min Rain = 0
KSB1 181907Z 24019KT 26/07 A2988 RMK A01 T02550074  RH  031%=      5-min Rain = 0
KSB1 181908Z 24018KT 26/08 A2988 RMK A01 T02550076  RH  032%=      5-min Rain = 0
KSB1 181909Z 24016KT 26/08 A2988 RMK A01 T02550075  RH  032%=      5-min Rain = 0
KSB1 181910Z 24016KT 26/08 A2988 RMK A01 T02550078  RH  032%=      5-min Rain = 0
KSB1 181911Z 26014G19KT 26/08 A2988 RMK A01 T02560079  RH  032%=      5-min Rain = 0
KSB1 181912Z 26019KT 26/08 A2988 RMK A01 T02600081  RH  032%=      5-min Rain = 0
KSB1 181913Z 26018KT 26/07 A2988 RMK A01 T02590073  RH  031%=      5-min Rain = 0
KSB1 181914Z 26016KT 26/08 A2988 RMK A01 T02560075  RH  032%=      5-min Rain = 0
KSB1 181915Z 25015KT 26/08 A2988 RMK A01 T02580080  RH  032%=      5-min Rain = 0
KSB1 181916Z 24015KT 26/08 A2988 RMK A01 T02590081  RH  032%=      5-min Rain = 0
KSB1 181917Z 27015G20KT 26/08 A2988 RMK A01 T02590083  RH  033%=      5-min Rain = 0
KSB1 181918Z 27011KT 26/08 A2988 RMK A01 T02580080  RH  032%=      5-min Rain = 0
KSB1 181919Z 25016KT 26/08 A2988 RMK A01 T02550080  RH  033%=      5-min Rain = 0
KSB1 181920Z 26015KT 25/08 A2988 RMK A01 T02540079  RH  033%=      5-min Rain = 0
KSB1 181921Z 25017KT 26/08 A2988 RMK A01 T02550080  RH  033%=      5-min Rain = 0
KSB1 181922Z 26014KT 25/08 A2988 RMK A01 T02540079  RH  033%=      5-min Rain = 0
KSB1 181923Z 26013KT 26/08 A2988 RMK A01 T02550081  RH  033%=      5-min Rain = 0
KSB1 181924Z 28009KT 26/08 A2988 RMK A01 T02550078  RH  032%=      5-min Rain = 0
KSB1 181925Z 26011KT 25/08 A2988 RMK A01 T02530080  RH  033%=      5-min Rain = 0
KSB1 181926Z 27012KT 26/08 A2988 RMK A01 T02560083  RH  033%=      5-min Rain = 0
KSB1 181927Z 26011KT 26/08 A2988 RMK A01 T02600082  RH  032%=      5-min Rain = 0
KSB1 181928Z 24010KT 26/08 A2988 RMK A01 T02610084  RH  033%=      5-min Rain = 0
KSB1 181929Z 26013KT 26/09 A2988 RMK A01 T02610085  RH  033%=      5-min Rain = 0
KSB1 181930Z 28014KT 26/08 A2987 RMK A01 T02620083  RH  032%=      5-min Rain = 0
KSB1 181931Z 31013KT 26/08 A2987 RMK A01 T02580081  RH  033%=      5-min Rain = 0
KSB1 181932Z 30014KT 26/08 A2987 RMK A01 T02550082  RH  033%=      5-min Rain = 0
KSB1 181933Z 29013KT 26/08 A2987 RMK A01 T02550082  RH  033%=      5-min Rain = 0
KSB1 181934Z 29010KT 26/08 A2987 RMK A01 T02550082  RH  033%=      5-min Rain = 0
KSB1 181935Z 32007KT 26/08 A2987 RMK A01 T02560082  RH  033%=      5-min Rain = 0
KSB1 181936Z 30013KT 25/08 A2987 RMK A01 T02540081  RH  033%=      5-min Rain = 0
KSB1 181937Z 30015KT 25/08 A2987 RMK A01 T02530077  RH  033%=      5-min Rain = 0
KSB1 181938Z 30012KT 25/08 A2987 RMK A01 T02530076  RH  032%=      5-min Rain = 0
KSB1 181939Z 28011KT 26/08 A2987 RMK A01 T02550077  RH  032%=      5-min Rain = 0
KSB1 181940Z 28011KT 26/07 A2987 RMK A01 T02560074  RH  031%=      5-min Rain = 0
KSB1 181941Z 29014G19KT 26/08 A2987 RMK A01 T02560077  RH  032%=      5-min Rain = 0
KSB1 181942Z 29013KT 26/08 A2987 RMK A01 T02560076  RH  032%=      5-min Rain = 0
KSB1 181943Z 29010KT 25/08 A2987 RMK A01 T02540075  RH  032%=      5-min Rain = 0
KSB1 181944Z 30010G19KT 26/07 A2987 RMK A01 T02550073  RH  032%=      5-min Rain = 0
KSB1 181945Z 30016G21KT 26/06 A2987 RMK A01 T02550064  RH  029%=      5-min Rain = 0
KSB1 181946Z 30014G19KT 26/07 A2987 RMK A01 T02550065  RH  030%=      5-min Rain = 0
KSB1 181947Z 30014KT 26/06 A2987 RMK A01 T02560063  RH  029%=      5-min Rain = 0
KSB1 181948Z 29013G19KT 26/06 A2987 RMK A01 T02570064  RH  029%=      5-min Rain = 0
KSB1 181949Z 28016KT 26/07 A2987 RMK A01 T02580068  RH  030%=      5-min Rain = 0
KSB1 181950Z 29020KT 26/07 A2987 RMK A01 T02590070  RH  030%=      5-min Rain = 0
KSB1 181951Z 28017KT 26/07 A2987 RMK A01 T02590070  RH  030%=      5-min Rain = 0
KSB1 181952Z 27016KT 26/07 A2987 RMK A01 T02610071  RH  030%=      5-min Rain = 0
KSB1 181953Z 27015G21KT 26/07 A2987 RMK A01 T02620069  RH  029%=      5-min Rain = 0
KSB1 181954Z 29012KT 26/07 A2987 RMK A01 T02620071  RH  030%=      5-min Rain = 0
KSB1 181955Z 28013KT 26/07 A2987 RMK A01 T02620071  RH  030%=      5-min Rain = 0
KSB1 181956Z 27012G19KT 26/07 A2987 RMK A01 T02620072  RH  030%=      5-min Rain = 0
KSB1 181957Z 26007KT 26/07 A2987 RMK A01 T02620071  RH  030%=      5-min Rain = 0
KSB1 181958Z 25015G20KT 26/07 A2987 RMK A01 T02600074  RH  031%=      5-min Rain = 0
KSB1 181959Z 27013KT 26/08 A2987 RMK A01 T02620075  RH  031%=      5-min Rain = 0
KSB1 182000Z 27014KT 26/08 A2987 RMK A01 T02610077  RH  031%=      5-min Rain = 0
KSB1 182001Z 26013KT 26/07 A2987 RMK A01 T02600074  RH  031%=      5-min Rain = 0
KSB1 182002Z 28016G22KT 26/07 A2987 RMK A01 T02570069  RH  030%=      5-min Rain = 0
KSB1 182003Z 30013G19KT 26/07 A2986 RMK A01 T02560067  RH  030%=      5-min Rain = 0
KSB1 182004Z 29014KT 26/07 A2986 RMK A01 T02590067  RH  029%=      5-min Rain = 0
KSB1 182005Z 30017KT 26/07 A2986 RMK A01 T02600066  RH  029%=      5-min Rain = 0
KSB1 182006Z 31014G22KT 26/07 A2986 RMK A01 T02600068  RH  029%=      5-min Rain = 0
KSB1 182007Z 29016KT 26/07 A2986 RMK A01 T02620068  RH  029%=      5-min Rain = 0
KSB1 182008Z 29019KT 26/07 A2986 RMK A01 T02610066  RH  029%=      5-min Rain = 0
KSB1 182009Z 29015G21KT 26/07 A2987 RMK A01 T02600065  RH  029%=      5-min Rain = 0
KSB1 182010Z 29013KT 26/07 A2986 RMK A01 T02570065  RH  029%=      5-min Rain = 0
KSB1 182011Z 28012KT 26/07 A2986 RMK A01 T02560068  RH  030%=      5-min Rain = 0
KSB1 182012Z 27011G20KT 26/06 A2986 RMK A01 T02580063  RH  029%=      5-min Rain = 0
KSB1 182013Z 29019KT 26/06 A2986 RMK A01 T02590059  RH  028%=      5-min Rain = 0
KSB1 182014Z 29019G25KT 26/06 A2986 RMK A01 T02590055  RH  027%=      5-min Rain = 0
KSB1 182015Z 28019KT 26/06 A2986 RMK A01 T02590056  RH  027%=      5-min Rain = 0
KSB1 182016Z 28017G24KT 26/05 A2986 RMK A01 T02590054  RH  027%=      5-min Rain = 0
KSB1 182017Z 28015G22KT 26/06 A2986 RMK A01 T02600056  RH  027%=      5-min Rain = 0
KSB1 182018Z 27021KT 26/06 A2986 RMK A01 T02630057  RH  027%=      5-min Rain = 0
KSB1 182019Z 27016KT 26/06 A2987 RMK A01 T02600057  RH  027%=      5-min Rain = 0
KSB1 182020Z 29017KT 26/06 A2987 RMK A01 T02590060  RH  028%=      5-min Rain = 0
KSB1 182021Z 28015KT 26/06 A2987 RMK A01 T02600059  RH  028%=      5-min Rain = 0
KSB1 182022Z 28016G22KT 26/06 A2987 RMK A01 T02580060  RH  028%=      5-min Rain = 0
KSB1 182023Z 30017G22KT 26/06 A2986 RMK A01 T02570062  RH  029%=      5-min Rain = 0
KSB1 182024Z 30017KT 26/06 A2986 RMK A01 T02570064  RH  029%=      5-min Rain = 0
KSB1 182025Z 27017KT 26/06 A2986 RMK A01 T02570064  RH  029%=      5-min Rain = 0
KSB1 182026Z 27014G19KT 26/07 A2986 RMK A01 T02590065  RH  029%=      5-min Rain = 0
KSB1 182027Z 26015G21KT 26/06 A2986 RMK A01 T02610059  RH  028%=      5-min Rain = 0
KSB1 182028Z 27018KT 26/06 A2986 RMK A01 T02560060  RH  028%=      5-min Rain = 0
KSB1 182029Z 26017G22KT 26/06 A2986 RMK A01 T02550064  RH  029%=      5-min Rain = 0
KSB1 182030Z 28013KT 26/07 A2986 RMK A01 T02550065  RH  030%=      5-min Rain = 0
KSB1 182031Z 27015G22KT 26/07 A2986 RMK A01 T02560065  RH  029%=      5-min Rain = 0
KSB1 182032Z 28016G21KT 26/06 A2986 RMK A01 T02580064  RH  029%=      5-min Rain = 0
KSB1 182033Z 28011KT 26/06 A2987 RMK A01 T02570064  RH  029%=      5-min Rain = 0
KSB1 182034Z 26013KT 26/06 A2986 RMK A01 T02570063  RH  029%=      5-min Rain = 0
KSB1 182035Z 26013KT 26/06 A2986 RMK A01 T02560062  RH  029%=      5-min Rain = 0
KSB1 182036Z 24015G20KT 26/06 A2986 RMK A01 T02560064  RH  029%=      5-min Rain = 0
KSB1 182037Z 26008KT 26/07 A2986 RMK A01 T02560066  RH  030%=      5-min Rain = 0
KSB1 182038Z 29013KT 26/07 A2986 RMK A01 T02600066  RH  029%=      5-min Rain = 0
KSB1 182039Z 28013KT 26/06 A2986 RMK A01 T02620063  RH  028%=      5-min Rain = 0
KSB1 182040Z 27013KT 26/06 A2986 RMK A01 T02640063  RH  028%=      5-min Rain = 0
KSB1 182041Z 27018G24KT 27/06 A2986 RMK A01 T02660060  RH  027%=      5-min Rain = 0
KSB1 182042Z 28017KT 26/06 A2986 RMK A01 T02630056  RH  026%=      5-min Rain = 0
KSB1 182043Z 28016G21KT 26/06 A2986 RMK A01 T02620058  RH  027%=      5-min Rain = 0
KSB1 182044Z 28013KT 26/06 A2986 RMK A01 T02620059  RH  027%=      5-min Rain = 0
KSB1 182045Z 27013KT 26/06 A2986 RMK A01 T02610059  RH  027%=      5-min Rain = 0
KSB1 182046Z 26015KT 26/06 A2986 RMK A01 T02610061  RH  028%=      5-min Rain = 0
KSB1 182047Z 26018KT 26/06 A2986 RMK A01 T02600063  RH  028%=      5-min Rain = 0
KSB1 182048Z 27016KT 26/06 A2986 RMK A01 T02560062  RH  029%=      5-min Rain = 0
KSB1 182049Z 27014KT 26/06 A2986 RMK A01 T02550063  RH  029%=      5-min Rain = 0
KSB1 182050Z 30013KT 26/06 A2986 RMK A01 T02550064  RH  029%=      5-min Rain = 0
KSB1 182051Z 28011KT 25/07 A2986 RMK A01 T02540065  RH  030%=      5-min Rain = 0
KSB1 182052Z 28014G19KT 26/07 A2986 RMK A01 T02550066  RH  030%=      5-min Rain = 0
KSB1 182053Z 28012G17KT 26/07 A2986 RMK A01 T02550065  RH  030%=      5-min Rain = 0
KSB1 182054Z 27011KT 26/07 A2986 RMK A01 T02550066  RH  030%=      5-min Rain = 0
KSB1 182055Z 27009KT 26/07 A2986 RMK A01 T02560069  RH  030%=      5-min Rain = 0
KSB1 182056Z 29012KT 26/07 A2986 RMK A01 T02590069  RH  030%=      5-min Rain = 0
KSB1 182057Z 28008G13KT 26/07 A2986 RMK A01 T02610071  RH  030%=      5-min Rain = 0
KSB1 182058Z 25013KT 26/07 A2986 RMK A01 T02640069  RH  029%=      5-min Rain = 0
KSB1 182059Z 26011KT 26/07 A2986 RMK A01 T02600066  RH  029%=      5-min Rain = 0
KSB1 182100Z 27010KT 26/07 A2986 RMK A01 T02600070  RH  030%=      5-min Rain = 0
KSB1 182101Z 27011KT 26/07 A2986 RMK A01 T02620067  RH  029%=      5-min Rain = 0
KSB1 182102Z 27010KT 26/07 A2986 RMK A01 T02630066  RH  028%=      5-min Rain = 0
KSB1 182103Z 28018G25KT 27/06 A2986 RMK A01 T02650063  RH  028%=      5-min Rain = 0
KSB1 182104Z 28016KT 26/06 A2986 RMK A01 T02630057  RH  027%=      5-min Rain = 0
KSB1 182105Z 29016KT 26/06 A2986 RMK A01 T02600059  RH  028%=      5-min Rain = 0
KSB1 182106Z 27010G15KT 26/06 A2986 RMK A01 T02600059  RH  028%=      5-min Rain = 0
KSB1 182107Z 28010KT 26/06 A2986 RMK A01 T02580059  RH  028%=      5-min Rain = 0
KSB1 182108Z 28013KT 26/06 A2986 RMK A01 T02580061  RH  028%=      5-min Rain = 0
KSB1 182109Z 26011G16KT 26/06 A2986 RMK A01 T02590062  RH  028%=      5-min Rain = 0
KSB1 182110Z 27009G14KT 26/06 A2986 RMK A01 T02580064  RH  029%=      5-min Rain = 0
KSB1 182111Z 28017KT 26/07 A2986 RMK A01 T02610067  RH  029%=      5-min Rain = 0
KSB1 182112Z 27015KT 26/07 A2985 RMK A01 T02610065  RH  029%=      5-min Rain = 0
KSB1 182113Z 29014KT 26/07 A2985 RMK A01 T02610068  RH  029%=      5-min Rain = 0
KSB1 182114Z 28015KT 26/07 A2985 RMK A01 T02640066  RH  028%=      5-min Rain = 0
KSB1 182115Z 29017KT 26/07 A2985 RMK A01 T02640068  RH  029%=      5-min Rain = 0
KSB1 182116Z 28017G22KT 26/07 A2985 RMK A01 T02630068  RH  029%=      5-min Rain = 0
KSB1 182117Z 28019KT 26/07 A2985 RMK A01 T02620066  RH  029%=      5-min Rain = 0
KSB1 182118Z 29020KT 26/07 A2985 RMK A01 T02590067  RH  029%=      5-min Rain = 0
KSB1 182119Z 28020KT 26/07 A2985 RMK A01 T02590068  RH  030%=      5-min Rain = 0
KSB1 182120Z 27015KT 26/07 A2986 RMK A01 T02570067  RH  030%=      5-min Rain = 0
KSB1 182121Z 27012KT 26/07 A2986 RMK A01 T02560066  RH  030%=      5-min Rain = 0
KSB1 182122Z 28013KT 26/07 A2986 RMK A01 T02570066  RH  029%=      5-min Rain = 0
KSB1 182123Z 29013KT 26/06 A2985 RMK A01 T02580064  RH  029%=      5-min Rain = 0
KSB1 182124Z 29014KT 26/06 A2985 RMK A01 T02580064  RH  029%=      5-min Rain = 0
KSB1 182125Z 29015G21KT 26/06 A2985 RMK A01 T02570063  RH  029%=      5-min Rain = 0
KSB1 182126Z 29019KT 26/06 A2985 RMK A01 T02590064  RH  029%=      5-min Rain = 0
KSB1 182127Z 30017KT 26/06 A2985 RMK A01 T02590064  RH  029%=      5-min Rain = 0
KSB1 182128Z 29014KT 26/07 A2985 RMK A01 T02600065  RH  029%=      5-min Rain = 0
KSB1 182129Z 26014KT 26/07 A2986 RMK A01 T02610066  RH  029%=      5-min Rain = 0
KSB1 182130Z 26017KT 26/07 A2985 RMK A01 T02620067  RH  029%=      5-min Rain = 0
KSB1 182131Z 26015KT 26/07 A2986 RMK A01 T02620068  RH  029%=      5-min Rain = 0
KSB1 182132Z 26014KT 26/07 A2986 RMK A01 T02580066  RH  029%=      5-min Rain = 0
KSB1 182133Z 28011KT 26/07 A2986 RMK A01 T02550068  RH  030%=      5-min Rain = 0
KSB1 182134Z 28013KT 26/07 A2986 RMK A01 T02550066  RH  030%=      5-min Rain = 0
KSB1 182135Z 27017G22KT 26/07 A2986 RMK A01 T02550066  RH  030%=      5-min Rain = 0
KSB1 182136Z 26012KT 26/07 A2986 RMK A01 T02560069  RH  030%=      5-min Rain = 0
KSB1 182137Z 26015KT 26/07 A2986 RMK A01 T02570070  RH  030%=      5-min Rain = 0
KSB1 182138Z 27014G19KT 26/07 A2986 RMK A01 T02550067  RH  030%=      5-min Rain = 0
KSB1 182139Z 27011KT 25/07 A2986 RMK A01 T02520066  RH  030%=      5-min Rain = 0
KSB1 182140Z 27011KT 25/07 A2986 RMK A01 T02510067  RH  031%=      5-min Rain = 0
KSB1 182141Z 26008KT 25/07 A2986 RMK A01 T02510068  RH  031%=      5-min Rain = 0
KSB1 182142Z 27011KT 25/07 A2986 RMK A01 T02510069  RH  031%=      5-min Rain = 0
KSB1 182143Z 27009KT 25/07 A2986 RMK A01 T02520067  RH  031%=      5-min Rain = 0
KSB1 182144Z 28014KT 25/07 A2986 RMK A01 T02520067  RH  031%=      5-min Rain = 0
KSB1 182145Z 27011KT 25/07 A2986 RMK A01 T02520066  RH  030%=      5-min Rain = 0
KSB1 182146Z 27010KT 25/07 A2986 RMK A01 T02500066  RH  031%=      5-min Rain = 0
KSB1 182147Z 29010KT 25/07 A2986 RMK A01 T02500065  RH  031%=      5-min Rain = 0
KSB1 182148Z 27010KT 25/07 A2986 RMK A01 T02520066  RH  030%=      5-min Rain = 0
KSB1 182149Z 28008KT 25/07 A2986 RMK A01 T02540067  RH  030%=      5-min Rain = 0
KSB1 182150Z 28013KT 26/07 A2986 RMK A01 T02580070  RH  030%=      5-min Rain = 0
KSB1 182151Z 27013G19KT 26/07 A2986 RMK A01 T02610071  RH  030%=      5-min Rain = 0
KSB1 182152Z 28017G23KT 26/07 A2986 RMK A01 T02610070  RH  030%=      5-min Rain = 0
KSB1 182153Z 27018KT 26/07 A2986 RMK A01 T02580068  RH  030%=      5-min Rain = 0
KSB1 182154Z 26017KT 26/07 A2986 RMK A01 T02560067  RH  030%=      5-min Rain = 0
KSB1 182155Z 27014KT 25/07 A2986 RMK A01 T02540068  RH  030%=      5-min Rain = 0
KSB1 182156Z 26015KT 25/07 A2986 RMK A01 T02540066  RH  030%=      5-min Rain = 0
KSB1 182157Z 25012KT 26/07 A2986 RMK A01 T02560068  RH  030%=      5-min Rain = 0
KSB1 182158Z 26016KT 26/07 A2986 RMK A01 T02570069  RH  030%=      5-min Rain = 0
KSB1 182159Z 26015KT 26/07 A2986 RMK A01 T02570067  RH  030%=      5-min Rain = 0
KSB1 182200Z 27015G20KT 26/07 A2986 RMK A01 T02570066  RH  029%=      5-min Rain = 0
KSB1 182201Z 29016G21KT 26/07 A2986 RMK A01 T02590067  RH  029%=      5-min Rain = 0
KSB1 182202Z 27015KT 26/07 A2986 RMK A01 T02600066  RH  029%=      5-min Rain = 0
KSB1 182203Z 28016KT 26/07 A2986 RMK A01 T02600067  RH  029%=      5-min Rain = 0
KSB1 182204Z 28020KT 26/07 A2986 RMK A01 T02600066  RH  029%=      5-min Rain = 0
KSB1 182205Z 27019KT 26/07 A2986 RMK A01 T02600067  RH  029%=      5-min Rain = 0
KSB1 182206Z 26016KT 26/07 A2986 RMK A01 T02590067  RH  029%=      5-min Rain = 0
KSB1 182207Z 25013KT 26/07 A2986 RMK A01 T02580069  RH  030%=      5-min Rain = 0
KSB1 182208Z 26013G18KT 26/07 A2986 RMK A01 T02570067  RH  030%=      5-min Rain = 0
KSB1 182209Z 25012KT 26/07 A2986 RMK A01 T02550066  RH  030%=      5-min Rain = 0
KSB1 182210Z 28013G19KT 26/07 A2986 RMK A01 T02560067  RH  030%=      5-min Rain = 0
KSB1 182211Z 28014KT 26/07 A2986 RMK A01 T02560066  RH  030%=      5-min Rain = 0
KSB1 182212Z 28016KT 26/07 A2986 RMK A01 T02570068  RH  030%=      5-min Rain = 0
KSB1 182213Z 26018KT 26/07 A2986 RMK A01 T02580068  RH  030%=      5-min Rain = 0
KSB1 182214Z 27018KT 26/07 A2986 RMK A01 T02570067  RH  030%=      5-min Rain = 0
KSB1 182215Z 28014KT 26/07 A2986 RMK A01 T02560068  RH  030%=      5-min Rain = 0
KSB1 182216Z 28014KT 26/07 A2986 RMK A01 T02550067  RH  030%=      5-min Rain = 0
KSB1 182217Z 27018KT 26/07 A2986 RMK A01 T02550068  RH  030%=      5-min Rain = 0
KSB1 182218Z 26019KT 26/07 A2986 RMK A01 T02560069  RH  030%=      5-min Rain = 0
KSB1 182219Z 26019G26KT 26/07 A2986 RMK A01 T02570069  RH  030%=      5-min Rain = 0
KSB1 182220Z 25013KT 26/07 A2986 RMK A01 T02550069  RH  030%=      5-min Rain = 0
KSB1 182221Z 25015G21KT 26/07 A2986 RMK A01 T02560071  RH  031%=      5-min Rain = 0
KSB1 182222Z 28017G22KT 26/07 A2986 RMK A01 T02570071  RH  031%=      5-min Rain = 0
KSB1 182223Z 28014G19KT 26/07 A2986 RMK A01 T02560067  RH  030%=      5-min Rain = 0
KSB1 182224Z 28016KT 26/07 A2986 RMK A01 T02550068  RH  030%=      5-min Rain = 0
KSB1 182225Z 28013KT 26/07 A2986 RMK A01 T02550069  RH  030%=      5-min Rain = 0
KSB1 182226Z 27013G19KT 26/07 A2986 RMK A01 T02560069  RH  030%=      5-min Rain = 0
KSB1 182227Z 27015KT 26/07 A2986 RMK A01 T02560069  RH  030%=      5-min Rain = 0
KSB1 182228Z 28011G16KT 26/07 A2986 RMK A01 T02550070  RH  031%=      5-min Rain = 0
KSB1 182229Z 28017KT 26/07 A2986 RMK A01 T02560070  RH  031%=      5-min Rain = 0
KSB1 182230Z 27013KT 26/07 A2986 RMK A01 T02550069  RH  030%=      5-min Rain = 0
KSB1 182231Z 26013KT 25/07 A2986 RMK A01 T02540070  RH  031%=      5-min Rain = 0
KSB1 182232Z 25013KT 25/07 A2986 RMK A01 T02540068  RH  031%=      5-min Rain = 0
KSB1 182233Z 26013KT 25/07 A2986 RMK A01 T02520068  RH  031%=      5-min Rain = 0
KSB1 182234Z 26013G18KT 25/07 A2986 RMK A01 T02520069  RH  031%=      5-min Rain = 0
KSB1 182235Z 27014KT 25/07 A2986 RMK A01 T02520067  RH  031%=      5-min Rain = 0
KSB1 182236Z 27013KT 25/07 A2986 RMK A01 T02520067  RH  030%=      5-min Rain = 0
KSB1 182237Z 29016G21KT 25/07 A2986 RMK A01 T02520066  RH  030%=      5-min Rain = 0
KSB1 182238Z 29021G27KT 25/07 A2985 RMK A01 T02500065  RH  031%=      5-min Rain = 0
KSB1 182239Z 28018G23KT 25/07 A2986 RMK A01 T02490065  RH  031%=      5-min Rain = 0
KSB1 182240Z 27016KT 25/07 A2986 RMK A01 T02490066  RH  031%=      5-min Rain = 0
KSB1 182241Z 26013G18KT 25/07 A2986 RMK A01 T02490065  RH  031%=      5-min Rain = 0
KSB1 182242Z 26014KT 25/06 A2986 RMK A01 T02470064  RH  031%=      5-min Rain = 0
KSB1 182243Z 25013KT 25/06 A2986 RMK A01 T02460063  RH  031%=      5-min Rain = 0
KSB1 182244Z 24013KT 25/07 A2986 RMK A01 T02460065  RH  031%=      5-min Rain = 0
KSB1 182245Z 24013KT 25/07 A2986 RMK A01 T02480065  RH  031%=      5-min Rain = 0
KSB1 182246Z 25011KT 25/06 A2986 RMK A01 T02500064  RH  030%=      5-min Rain = 0
KSB1 182247Z 25011G17KT 25/07 A2986 RMK A01 T02500065  RH  030%=      5-min Rain = 0
KSB1 182248Z 26013KT 25/07 A2986 RMK A01 T02520067  RH  031%=      5-min Rain = 0
KSB1 182249Z 27015G21KT 25/07 A2986 RMK A01 T02520065  RH  030%=      5-min Rain = 0
KSB1 182250Z 28016KT 25/07 A2986 RMK A01 T02520065  RH  030%=      5-min Rain = 0
KSB1 182251Z 26011KT 25/06 A2986 RMK A01 T02520063  RH  030%=      5-min Rain = 0
KSB1 182252Z 26009KT 25/07 A2986 RMK A01 T02510065  RH  030%=      5-min Rain = 0
KSB1 182253Z 25012KT 25/07 A2986 RMK A01 T02520065  RH  030%=      5-min Rain = 0
KSB1 182254Z 25013KT 25/06 A2986 RMK A01 T02520064  RH  030%=      5-min Rain = 0
KSB1 182255Z 26011KT 25/07 A2986 RMK A01 T02530066  RH  030%=      5-min Rain = 0
KSB1 182256Z 26012KT 25/06 A2986 RMK A01 T02540064  RH  030%=      5-min Rain = 0
KSB1 182257Z 27012KT 25/06 A2986 RMK A01 T02540064  RH  030%=      5-min Rain = 0
KSB1 182258Z 28013G18KT 25/06 A2986 RMK A01 T02530062  RH  029%=      5-min Rain = 0
KSB1 182259Z 29014KT 25/06 A2986 RMK A01 T02530059  RH  029%=      5-min Rain = 0
KSB1 182300Z 29010G15KT 25/06 A2986 RMK A01 T02520059  RH  029%=      5-min Rain = 0
KSB1 182301Z 29010KT 25/06 A2986 RMK A01 T02520059  RH  029%=      5-min Rain = 0
KSB1 182302Z 27010KT 25/06 A2986 RMK A01 T02540060  RH  029%=      5-min Rain = 0
KSB1 182303Z 25010KT 26/06 A2986 RMK A01 T02550060  RH  029%=      5-min Rain = 0
KSB1 182304Z 26012KT 25/06 A2986 RMK A01 T02540058  RH  028%=      5-min Rain = 0
KSB1 182305Z 26012KT 25/06 A2986 RMK A01 T02530059  RH  029%=      5-min Rain = 0
KSB1 182306Z 25008KT 25/06 A2986 RMK A01 T02530060  RH  029%=      5-min Rain = 0
KSB1 182307Z 26009KT 25/06 A2986 RMK A01 T02540061  RH  029%=      5-min Rain = 0
KSB1 182308Z 27009KT 26/06 A2986 RMK A01 T02550060  RH  029%=      5-min Rain = 0
KSB1 182309Z 27007KT 26/06 A2986 RMK A01 T02550061  RH  029%=      5-min Rain = 0
KSB1 182310Z 28011KT 26/06 A2986 RMK A01 T02550061  RH  029%=      5-min Rain = 0
KSB1 182311Z 28012KT 25/06 A2987 RMK A01 T02530060  RH  029%=      5-min Rain = 0
KSB1 182312Z 29017G26KT 25/06 A2987 RMK A01 T02510060  RH  029%=      5-min Rain = 0
KSB1 182313Z 28018G23KT 25/06 A2987 RMK A01 T02490064  RH  031%=      5-min Rain = 0
KSB1 182314Z 31013KT 24/06 A2987 RMK A01 T02440063  RH  031%=      5-min Rain = 0
KSB1 182315Z 31021G27KT 24/07 A2987 RMK A01 T02410066  RH  033%=      5-min Rain = 0
KSB1 182316Z 32023KT 24/07 A2987 RMK A01 T02380067  RH  033%=      5-min Rain = 0
KSB1 182317Z 31021KT 24/07 A2987 RMK A01 T02360067  RH  034%=      5-min Rain = 0
KSB1 182318Z 31018G23KT 23/07 A2987 RMK A01 T02340066  RH  034%=      5-min Rain = 0
KSB1 182319Z 31016G21KT 23/07 A2987 RMK A01 T02340067  RH  034%=      5-min Rain = 0
KSB1 182320Z 31017KT 23/07 A2987 RMK A01 T02330066  RH  034%=      5-min Rain = 0
KSB1 182321Z 31019KT 23/07 A2987 RMK A01 T02330066  RH  034%=      5-min Rain = 0
KSB1 182322Z 31016KT 23/07 A2987 RMK A01 T02330066  RH  034%=      5-min Rain = 0
KSB1 182323Z 31015KT 23/07 A2987 RMK A01 T02330067  RH  034%=      5-min Rain = 0
KSB1 182324Z 31017KT 23/07 A2987 RMK A01 T02330067  RH  034%=      5-min Rain = 0
KSB1 182325Z 30018KT 23/07 A2987 RMK A01 T02330066  RH  034%=      5-min Rain = 0
KSB1 182326Z 31016KT 23/07 A2987 RMK A01 T02320066  RH  034%=      5-min Rain = 0
KSB1 182327Z 32014G19KT 23/07 A2987 RMK A01 T02320066  RH  034%=      5-min Rain = 0
KSB1 182328Z 32014KT 23/07 A2987 RMK A01 T02320066  RH  034%=      5-min Rain = 0
KSB1 182329Z 31012KT 23/07 A2987 RMK A01 T02320066  RH  034%=      5-min Rain = 0
KSB1 182330Z 30013KT 23/07 A2987 RMK A01 T02320066  RH  034%=      5-min Rain = 0
KSB1 182331Z 30014KT 23/07 A2987 RMK A01 T02320066  RH  034%=      5-min Rain = 0
KSB1 182332Z 30013KT 23/07 A2987 RMK A01 T02320065  RH  034%=      5-min Rain = 0
KSB1 182333Z 30012KT 23/07 A2987 RMK A01 T02320067  RH  034%=      5-min Rain = 0
KSB1 182334Z 30013G18KT 23/07 A2987 RMK A01 T02320066  RH  034%=      5-min Rain = 0
KSB1 182335Z 30014KT 23/07 A2987 RMK A01 T02320066  RH  034%=      5-min Rain = 0
KSB1 182336Z 31013KT 23/07 A2987 RMK A01 T02320065  RH  034%=      5-min Rain = 0
KSB1 182337Z 30014KT 23/07 A2987 RMK A01 T02320066  RH  034%=      5-min Rain = 0
KSB1 182338Z 30012KT 23/07 A2987 RMK A01 T02320065  RH  034%=      5-min Rain = 0
KSB1 182339Z 30010KT 23/07 A2987 RMK A01 T02320065  RH  034%=      5-min Rain = 0
KSB1 182340Z 29010G15KT 23/07 A2987 RMK A01 T02320066  RH  034%=      5-min Rain = 0
KSB1 182341Z 30010KT 23/07 A2987 RMK A01 T02320066  RH  034%=      5-min Rain = 0
KSB1 182342Z 31009KT 23/07 A2987 RMK A01 T02320066  RH  034%=      5-min Rain = 0
KSB1 182343Z 31008KT 23/07 A2987 RMK A01 T02320066  RH  034%=      5-min Rain = 0
KSB1 182344Z 31009KT 23/07 A2987 RMK A01 T02320067  RH  035%=      5-min Rain = 0
KSB1 182345Z 31009KT 23/07 A2987 RMK A01 T02320068  RH  035%=      5-min Rain = 0
KSB1 182346Z 30010KT 23/07 A2987 RMK A01 T02320068  RH  035%=      5-min Rain = 0
KSB1 182347Z 31009KT 23/07 A2987 RMK A01 T02320067  RH  035%=      5-min Rain = 0
KSB1 182348Z 30009KT 23/07 A2987 RMK A01 T02320066  RH  034%=      5-min Rain = 0
KSB1 182349Z 29010KT 23/07 A2987 RMK A01 T02320066  RH  034%=      5-min Rain = 0
KSB1 182350Z 30010KT 23/07 A2987 RMK A01 T02310067  RH  035%=      5-min Rain = 0
KSB1 182351Z 30011KT 23/07 A2987 RMK A01 T02320067  RH  034%=      5-min Rain = 0
KSB1 182352Z 30014KT 23/07 A2987 RMK A01 T02320066  RH  034%=      5-min Rain = 0
KSB1 182353Z 29011KT 23/07 A2987 RMK A01 T02320066  RH  034%=      5-min Rain = 0
KSB1 182354Z 29007KT 23/07 A2987 RMK A01 T02320067  RH  034%=      5-min Rain = 0
KSB1 182355Z 29008KT 23/07 A2987 RMK A01 T02320067  RH  035%=      5-min Rain = 0
KSB1 182356Z 28009KT 23/07 A2987 RMK A01 T02310068  RH  035%=      5-min Rain = 0
KSB1 182357Z 29008KT 23/07 A2987 RMK A01 T02310068  RH  035%=      5-min Rain = 0
KSB1 182358Z 28009KT 23/07 A2987 RMK A01 T02310068  RH  035%=      5-min Rain = 0
KSB1 182359Z 29010KT 23/07 A2987 RMK A01 T02310067  RH  035%=      5-min Rain = 0
KSB1 190000Z 28007KT 23/07 A2987 RMK A01 T02310068  RH  035%=      5-min Rain = 0
KSB1 190001Z 29009KT 23/07 A2987 RMK A01 T02310068  RH  035%=      5-min Rain = 0
KSB1 190002Z 29008KT 23/07 A2987 RMK A01 T02310068  RH  035%=      5-min Rain = 0
KSB1 190003Z 28009KT 23/07 A2987 RMK A01 T02310066  RH  035%=      5-min Rain = 0
KSB1 190004Z 28009KT 23/07 A2988 RMK A01 T02310066  RH  034%=      5-min Rain = 0
KSB1 190005Z 29006KT 23/07 A2987 RMK A01 T02310066  RH  034%=      5-min Rain = 0
KSB1 190006Z 29011KT 23/07 A2988 RMK A01 T02310065  RH  034%=      5-min Rain = 0
KSB1 190007Z 31007G12KT 23/06 A2988 RMK A01 T02310064  RH  034%=      5-min Rain = 0
KSB1 190008Z 29009KT 23/07 A2988 RMK A01 T02320065  RH  034%=      5-min Rain = 0
KSB1 190009Z 28012KT 23/07 A2988 RMK A01 T02310065  RH  034%=      5-min Rain = 0
KSB1 190010Z 30011G20KT 23/06 A2988 RMK A01 T02310063  RH  034%=      5-min Rain = 0
KSB1 190011Z 29015KT 23/06 A2988 RMK A01 T02310061  RH  033%=      5-min Rain = 0
KSB1 190012Z 29014KT 23/06 A2988 RMK A01 T02320061  RH  033%=      5-min Rain = 0
KSB1 190013Z 29015KT 23/06 A2988 RMK A01 T02320062  RH  033%=      5-min Rain = 0
KSB1 190014Z 29012KT 23/06 A2988 RMK A01 T02320063  RH  034%=      5-min Rain = 0
KSB1 190015Z 28011KT 23/06 A2988 RMK A01 T02320063  RH  034%=      5-min Rain = 0
KSB1 190016Z 28012G17KT 23/06 A2988 RMK A01 T02310064  RH  034%=      5-min Rain = 0
KSB1 190017Z 28013KT 23/06 A2988 RMK A01 T02300063  RH  034%=      5-min Rain = 0
KSB1 190018Z 29013G18KT 23/06 A2988 RMK A01 T02300064  RH  034%=      5-min Rain = 0
KSB1 190019Z 30013KT 23/06 A2988 RMK A01 T02300063  RH  034%=      5-min Rain = 0
KSB1 190020Z 30012KT 23/06 A2988 RMK A01 T02300063  RH  034%=      5-min Rain = 0
KSB1 190021Z 30010G15KT 23/06 A2988 RMK A01 T02300064  RH  034%=      5-min Rain = 0
KSB1 190022Z 30012KT 23/06 A2988 RMK A01 T02300063  RH  034%=      5-min Rain = 0
KSB1 190023Z 30013KT 23/06 A2988 RMK A01 T02300064  RH  034%=      5-min Rain = 0
KSB1 190024Z 29012G17KT 23/06 A2988 RMK A01 T02300064  RH  034%=      5-min Rain = 0
KSB1 190025Z 29014KT 23/06 A2988 RMK A01 T02300064  RH  034%=      5-min Rain = 0
KSB1 190026Z 30010KT 23/06 A2988 RMK A01 T02300064  RH  034%=      5-min Rain = 0
KSB1 190027Z 30010KT 23/06 A2988 RMK A01 T02300064  RH  034%=      5-min Rain = 0
KSB1 190028Z 31012KT 23/06 A2988 RMK A01 T02300064  RH  034%=      5-min Rain = 0
KSB1 190029Z 29008KT 23/06 A2988 RMK A01 T02300064  RH  034%=      5-min Rain = 0
KSB1 190030Z 30009KT 23/07 A2988 RMK A01 T02300065  RH  035%=      5-min Rain = 0
KSB1 190031Z 30009KT 23/07 A2988 RMK A01 T02290065  RH  035%=      5-min Rain = 0
KSB1 190032Z 30008KT 23/07 A2988 RMK A01 T02290065  RH  035%=      5-min Rain = 0
KSB1 190033Z 29012G18KT 23/07 A2989 RMK A01 T02290065  RH  035%=      5-min Rain = 0
KSB1 190034Z 31010G15KT 23/06 A2989 RMK A01 T02290064  RH  034%=      5-min Rain = 0
KSB1 190035Z 29006KT 23/06 A2989 RMK A01 T02280064  RH  035%=      5-min Rain = 0
KSB1 190036Z 29009KT 23/07 A2989 RMK A01 T02280065  RH  035%=      5-min Rain = 0
KSB1 190037Z 30007KT 23/07 A2989 RMK A01 T02280065  RH  035%=      5-min Rain = 0
KSB1 190038Z 31010G16KT 23/07 A2989 RMK A01 T02280065  RH  035%=      5-min Rain = 0
KSB1 190039Z 32013KT 23/06 A2989 RMK A01 T02280064  RH  035%=      5-min Rain = 0
KSB1 190040Z 30014KT 23/07 A2989 RMK A01 T02270065  RH  035%=      5-min Rain = 0
KSB1 190041Z 31019G24KT 23/07 A2989 RMK A01 T02270067  RH  036%=      5-min Rain = 0
KSB1 190042Z 31015G23KT 23/07 A2989 RMK A01 T02250070  RH  037%=      5-min Rain = 0
KSB1 190043Z 31018G23KT 22/07 A2989 RMK A01 T02240071  RH  037%=      5-min Rain = 0
KSB1 190044Z 31014KT 22/07 A2989 RMK A01 T02230072  RH  038%=      5-min Rain = 0
KSB1 190045Z 31015KT 22/07 A2989 RMK A01 T02220072  RH  038%=      5-min Rain = 0
KSB1 190046Z 31014KT 22/07 A2989 RMK A01 T02210072  RH  038%=      5-min Rain = 0
KSB1 190047Z 31016KT 22/07 A2989 RMK A01 T02210073  RH  038%=      5-min Rain = 0
KSB1 190048Z 32016KT 22/07 A2989 RMK A01 T02200073  RH  039%=      5-min Rain = 0
KSB1 190049Z 31016KT 22/07 A2989 RMK A01 T02190073  RH  039%=      5-min Rain = 0
KSB1 190050Z 31016KT 22/07 A2989 RMK A01 T02190073  RH  039%=      5-min Rain = 0
KSB1 190051Z 31013KT 22/07 A2989 RMK A01 T02180073  RH  039%=      5-min Rain = 0
KSB1 190052Z 31014KT 22/07 A2989 RMK A01 T02180074  RH  039%=      5-min Rain = 0
KSB1 190053Z 31013KT 22/07 A299 RMK A01 T02170074  RH  040%=      5-min Rain = 0
KSB1 190054Z 31014KT 22/07 A299 RMK A01 T02160074  RH  040%=      5-min Rain = 0
KSB1 190055Z 31012KT 22/07 A299 RMK A01 T02160074  RH  040%=      5-min Rain = 0
KSB1 190056Z 30013KT 22/07 A299 RMK A01 T02160074  RH  040%=      5-min Rain = 0
KSB1 190057Z 31011KT 22/08 A299 RMK A01 T02160075  RH  040%=      5-min Rain = 0
KSB1 190058Z 30012KT 22/08 A299 RMK A01 T02150075  RH  040%=      5-min Rain = 0
KSB1 190059Z 31011KT 22/08 A299 RMK A01 T02150075  RH  040%=      5-min Rain = 0
KSB1 190100Z 30012KT 22/08 A299 RMK A01 T02150075  RH  040%=      5-min Rain = 0
KSB1 190101Z 31011KT 21/08 A299 RMK A01 T02140075  RH  040%=      5-min Rain = 0
KSB1 190102Z 30010KT 21/08 A299 RMK A01 T02140075  RH  041%=      5-min Rain = 0
KSB1 190103Z 30010KT 21/08 A299 RMK A01 T02140075  RH  041%=      5-min Rain = 0
KSB1 190104Z 30008KT 21/08 A299 RMK A01 T02130075  RH  041%=      5-min Rain = 0
KSB1 190105Z 30008KT 21/08 A299 RMK A01 T02130076  RH  041%=      5-min Rain = 0
KSB1 190106Z 31008KT 21/08 A299 RMK A01 T02130076  RH  041%=      5-min Rain = 0
KSB1 190107Z 30007KT 21/08 A299 RMK A01 T02120076  RH  041%=      5-min Rain = 0
KSB1 190108Z 31008KT 21/08 A299 RMK A01 T02110075  RH  041%=      5-min Rain = 0
KSB1 190109Z 31009KT 21/08 A299 RMK A01 T02110076  RH  042%=      5-min Rain = 0
KSB1 190110Z 30010KT 21/08 A299 RMK A01 T02110075  RH  041%=      5-min Rain = 0
KSB1 190111Z 31008KT 21/08 A299 RMK A01 T02110075  RH  041%=      5-min Rain = 0
KSB1 190112Z 31010KT 21/08 A299 RMK A01 T02110075  RH  041%=      5-min Rain = 0
KSB1 190113Z 31010KT 21/07 A299 RMK A01 T02110074  RH  041%=      5-min Rain = 0
KSB1 190114Z 31009KT 21/07 A299 RMK A01 T02110074  RH  041%=      5-min Rain = 0
KSB1 190115Z 31009KT 21/07 A299 RMK A01 T02110074  RH  041%=      5-min Rain = 0
KSB1 190116Z 31010KT 21/07 A299 RMK A01 T02110074  RH  041%=      5-min Rain = 0
KSB1 190117Z 31009KT 21/07 A299 RMK A01 T02110073  RH  041%=      5-min Rain = 0
KSB1 190118Z 31009KT 21/07 A2991 RMK A01 T02110074  RH  041%=      5-min Rain = 0
KSB1 190119Z 31009KT 21/07 A2991 RMK A01 T02110074  RH  041%=      5-min Rain = 0
KSB1 190120Z 31009KT 21/07 A2991 RMK A01 T02110074  RH  041%=      5-min Rain = 0
KSB1 190121Z 31008KT 21/07 A2991 RMK A01 T02110074  RH  041%=      5-min Rain = 0
KSB1 190122Z 30007KT 21/07 A2991 RMK A01 T02100074  RH  041%=      5-min Rain = 0
KSB1 190123Z 31008KT 21/07 A2991 RMK A01 T02100074  RH  042%=      5-min Rain = 0
KSB1 190124Z 31009KT 21/07 A2991 RMK A01 T02100074  RH  042%=      5-min Rain = 0
KSB1 190125Z 29008KT 21/07 A2991 RMK A01 T02100074  RH  041%=      5-min Rain = 0
KSB1 190126Z 30008KT 21/07 A2991 RMK A01 T02090074  RH  042%=      5-min Rain = 0
KSB1 190127Z 30007KT 21/07 A2991 RMK A01 T02090074  RH  042%=      5-min Rain = 0
KSB1 190128Z 30008KT 21/08 A2991 RMK A01 T02090075  RH  042%=      5-min Rain = 0
KSB1 190129Z 30007KT 21/08 A2991 RMK A01 T02090075  RH  042%=      5-min Rain = 0
KSB1 190130Z 30007KT 21/08 A2991 RMK A01 T02090075  RH  042%=      5-min Rain = 0
KSB1 190131Z 29006KT 21/08 A2991 RMK A01 T02090075  RH  042%=      5-min Rain = 0
KSB1 190132Z 30008KT 21/08 A2991 RMK A01 T02080075  RH  042%=      5-min Rain = 0
KSB1 190133Z 29007KT 21/08 A2991 RMK A01 T02080075  RH  042%=      5-min Rain = 0
KSB1 190134Z 29006KT 21/08 A2991 RMK A01 T02070075  RH  042%=      5-min Rain = 0
KSB1 190135Z 29005KT 21/08 A2991 RMK A01 T02070076  RH  043%=      5-min Rain = 0
KSB1 190136Z 29004KT 21/08 A2991 RMK A01 T02060076  RH  043%=      5-min Rain = 0
KSB1 190137Z 29006KT 21/08 A2991 RMK A01 T02050077  RH  043%=      5-min Rain = 0
KSB1 190138Z 29006KT 20/08 A2991 RMK A01 T02040077  RH  044%=      5-min Rain = 0
KSB1 190139Z 30005KT 20/08 A2991 RMK A01 T02040077  RH  044%=      5-min Rain = 0
KSB1 190140Z 29006KT 20/08 A2991 RMK A01 T02030076  RH  044%=      5-min Rain = 0
KSB1 190141Z 29005KT 20/08 A2991 RMK A01 T02030075  RH  043%=      5-min Rain = 0
KSB1 190142Z 29006KT 20/08 A2991 RMK A01 T02040076  RH  044%=      5-min Rain = 0
KSB1 190143Z 30004KT 20/08 A2991 RMK A01 T02040076  RH  043%=      5-min Rain = 0
KSB1 190144Z 29004KT 20/08 A2991 RMK A01 T02040077  RH  044%=      5-min Rain = 0
KSB1 190145Z 30004KT 20/08 A2991 RMK A01 T02030077  RH  044%=      5-min Rain = 0
KSB1 190146Z 30004KT 20/08 A2991 RMK A01 T02020077  RH  044%=      5-min Rain = 0
KSB1 190147Z 30005KT 20/08 A2991 RMK A01 T02020077  RH  044%=      5-min Rain = 0
KSB1 190148Z 30005KT 20/08 A2991 RMK A01 T02020076  RH  044%=      5-min Rain = 0
KSB1 190149Z 29004KT 20/08 A2991 RMK A01 T02010076  RH  044%=      5-min Rain = 0
KSB1 190150Z 31003KT 20/08 A2991 RMK A01 T02020075  RH  044%=      5-min Rain = 0
KSB1 190151Z 31004KT 20/08 A2991 RMK A01 T02020076  RH  044%=      5-min Rain = 0
KSB1 190152Z 31004KT 20/08 A2991 RMK A01 T02020075  RH  044%=      5-min Rain = 0
KSB1 190153Z 31004KT 20/07 A2991 RMK A01 T02020074  RH  044%=      5-min Rain = 0
KSB1 190154Z 32006KT 20/07 A2991 RMK A01 T02030074  RH  043%=      5-min Rain = 0
KSB1 190155Z 31006KT 20/07 A2991 RMK A01 T02030074  RH  043%=      5-min Rain = 0
KSB1 190156Z 31006KT 20/07 A2991 RMK A01 T02040073  RH  043%=      5-min Rain = 0
KSB1 190157Z 32005KT 21/07 A2991 RMK A01 T02050073  RH  042%=      5-min Rain = 0
KSB1 190158Z 31004KT 21/07 A2992 RMK A01 T02050073  RH  042%=      5-min Rain = 0
KSB1 190159Z 31004KT 21/07 A2992 RMK A01 T02050073  RH  042%=      5-min Rain = 0
KSB1 190200Z 30004KT 21/07 A2992 RMK A01 T02050074  RH  043%=      5-min Rain = 0
KSB1 190201Z 30005KT 21/08 A2992 RMK A01 T02050075  RH  043%=      5-min Rain = 0
KSB1 190202Z 30004KT 20/07 A2992 RMK A01 T02040074  RH  043%=      5-min Rain = 0
KSB1 190203Z 32004KT 20/07 A2992 RMK A01 T02040074  RH  043%=      5-min Rain = 0
KSB1 190204Z 31004KT 20/08 A2992 RMK A01 T02040075  RH  043%=      5-min Rain = 0
KSB1 190205Z 30003KT 20/07 A2992 RMK A01 T02040074  RH  043%=      5-min Rain = 0
KSB1 190206Z 31003KT 20/07 A2992 RMK A01 T02040073  RH  043%=      5-min Rain = 0
KSB1 190207Z 29003KT 20/08 A2992 RMK A01 T02030075  RH  043%=      5-min Rain = 0
KSB1 190208Z 30004KT 20/08 A2992 RMK A01 T02030075  RH  044%=      5-min Rain = 0
KSB1 190209Z 30005KT 20/07 A2992 RMK A01 T02020073  RH  043%=      5-min Rain = 0
KSB1 190210Z 29003KT 20/07 A2992 RMK A01 T02030074  RH  043%=      5-min Rain = 0
KSB1 190211Z 28003KT 20/08 A2992 RMK A01 T02030075  RH  044%=      5-min Rain = 0
KSB1 190212Z 28003KT 20/07 A2992 RMK A01 T02020074  RH  044%=      5-min Rain = 0
KSB1 190213Z 30004KT 20/08 A2992 RMK A01 T02010075  RH  044%=      5-min Rain = 0
KSB1 190214Z 29004KT 20/07 A2992 RMK A01 T02020071  RH  043%=      5-min Rain = 0
KSB1 190215Z 29005KT 20/07 A2992 RMK A01 T02030072  RH  043%=      5-min Rain = 0
KSB1 190216Z 29004KT 20/07 A2992 RMK A01 T02040073  RH  043%=      5-min Rain = 0
KSB1 190217Z 30004KT 20/07 A2992 RMK A01 T02040073  RH  043%=      5-min Rain = 0
KSB1 190218Z 30004KT 20/07 A2992 RMK A01 T02040074  RH  043%=      5-min Rain = 0
KSB1 190219Z 30004KT 20/07 A2992 RMK A01 T02040074  RH  043%=      5-min Rain = 0
KSB1 190220Z 30004KT 20/07 A2992 RMK A01 T02040073  RH  042%=      5-min Rain = 0
KSB1 190221Z 30004KT 20/07 A2992 RMK A01 T02040072  RH  042%=      5-min Rain = 0
KSB1 190222Z 30004KT 21/07 A2992 RMK A01 T02050074  RH  043%=      5-min Rain = 0
KSB1 190223Z 30005KT 20/07 A2992 RMK A01 T02040074  RH  043%=      5-min Rain = 0
KSB1 190224Z 30005KT 20/07 A2992 RMK A01 T02030073  RH  043%=      5-min Rain = 0
KSB1 190225Z 30006KT 20/07 A2992 RMK A01 T02030072  RH  043%=      5-min Rain = 0
KSB1 190226Z 30007KT 20/07 A2992 RMK A01 T02030072  RH  043%=      5-min Rain = 0
KSB1 190227Z 30008KT 20/07 A2992 RMK A01 T02030072  RH  043%=      5-min Rain = 0
KSB1 190228Z 30008KT 20/07 A2992 RMK A01 T02030070  RH  042%=      5-min Rain = 0
KSB1 190229Z 30008KT 20/07 A2992 RMK A01 T02030070  RH  042%=      5-min Rain = 0
KSB1 190230Z 30007KT 20/07 A2992 RMK A01 T02040071  RH  042%=      5-min Rain = 0
KSB1 190231Z 30008KT 20/07 A2992 RMK A01 T02040070  RH  042%=      5-min Rain = 0
KSB1 190232Z 30008KT 20/07 A2992 RMK A01 T02040070  RH  042%=      5-min Rain = 0
KSB1 190233Z 29007KT 20/07 A2992 RMK A01 T02040069  RH  042%=      5-min Rain = 0
KSB1 190234Z 29007KT 20/07 A2992 RMK A01 T02040070  RH  042%=      5-min Rain = 0
KSB1 190235Z 29007KT 20/07 A2992 RMK A01 T02040070  RH  042%=      5-min Rain = 0
KSB1 190236Z 29007KT 20/07 A2992 RMK A01 T02040071  RH  042%=      5-min Rain = 0
KSB1 190237Z 29007KT 20/07 A2992 RMK A01 T02030072  RH  043%=      5-min Rain = 0
KSB1 190238Z 30008KT 20/07 A2992 RMK A01 T02020072  RH  043%=      5-min Rain = 0
KSB1 190239Z 31007KT 20/07 A2992 RMK A01 T02020071  RH  043%=      5-min Rain = 0
KSB1 190240Z 31006KT 20/07 A2992 RMK A01 T02020071  RH  043%=      5-min Rain = 0
KSB1 190241Z 30006KT 20/07 A2992 RMK A01 T02020071  RH  043%=      5-min Rain = 0
KSB1 190242Z 29007KT 20/07 A2992 RMK A01 T02020071  RH  043%=      5-min Rain = 0
KSB1 190243Z 30006KT 20/07 A2992 RMK A01 T02020070  RH  042%=      5-min Rain = 0
KSB1 190244Z 31007KT 20/07 A2992 RMK A01 T02020070  RH  042%=      5-min Rain = 0
KSB1 190245Z 31006KT 20/07 A2992 RMK A01 T02030071  RH  042%=      5-min Rain = 0
KSB1 190246Z 31004KT 20/07 A2992 RMK A01 T02020071  RH  042%=      5-min Rain = 0
KSB1 190247Z 32004KT 20/07 A2992 RMK A01 T02020071  RH  042%=      5-min Rain = 0
KSB1 190248Z 32004KT 20/07 A2992 RMK A01 T02020071  RH  043%=      5-min Rain = 0
KSB1 190249Z 32005KT 20/07 A2992 RMK A01 T02010070  RH  043%=      5-min Rain = 0
KSB1 190250Z 32005KT 20/07 A2992 RMK A01 T02010069  RH  042%=      5-min Rain = 0
KSB1 190251Z 33003KT 20/07 A2992 RMK A01 T02020069  RH  042%=      5-min Rain = 0
KSB1 190252Z 33004KT 20/07 A2992 RMK A01 T02030069  RH  042%=      5-min Rain = 0
KSB1 190253Z 32003KT 20/07 A2992 RMK A01 T02030070  RH  042%=      5-min Rain = 0
KSB1 190254Z 34004KT 20/07 A2992 RMK A01 T02020069  RH  042%=      5-min Rain = 0
KSB1 190255Z 32004KT 20/07 A2992 RMK A01 T02020069  RH  042%=      5-min Rain = 0
KSB1 190256Z 31004KT 20/07 A2992 RMK A01 T02020068  RH  042%=      5-min Rain = 0
KSB1 190257Z 33004KT 20/07 A2993 RMK A01 T02030067  RH  041%=      5-min Rain = 0
KSB1 190258Z 33004KT 20/07 A2993 RMK A01 T02040068  RH  041%=      5-min Rain = 0
KSB1 190259Z 31004KT 20/07 A2993 RMK A01 T02040068  RH  041%=      5-min Rain = 0
KSB1 190300Z 32004KT 21/07 A2993 RMK A01 T02050069  RH  041%=      5-min Rain = 0
KSB1 190301Z 31004KT 20/07 A2993 RMK A01 T02040069  RH  042%=      5-min Rain = 0
KSB1 190302Z 30005KT 20/07 A2993 RMK A01 T02040070  RH  042%=      5-min Rain = 0
KSB1 190303Z 31004KT 20/07 A2993 RMK A01 T02040068  RH  041%=      5-min Rain = 0
KSB1 190304Z 30005KT 21/07 A2993 RMK A01 T02050068  RH  041%=      5-min Rain = 0
KSB1 190305Z 32005KT 21/07 A2993 RMK A01 T02060069  RH  041%=      5-min Rain = 0
KSB1 190306Z 32005KT 21/07 A2993 RMK A01 T02050070  RH  041%=      5-min Rain = 0
KSB1 190307Z 33005KT 21/07 A2993 RMK A01 T02050071  RH  042%=      5-min Rain = 0
KSB1 190308Z 33005KT 20/07 A2993 RMK A01 T02040071  RH  042%=      5-min Rain = 0
KSB1 190309Z 34006KT 20/07 A2994 RMK A01 T02030072  RH  043%=      5-min Rain = 0
KSB1 190310Z 34006KT 20/07 A2994 RMK A01 T02010074  RH  044%=      5-min Rain = 0
KSB1 190311Z 34006KT 20/07 A2994 RMK A01 T01990074  RH  044%=      5-min Rain = 0
KSB1 190312Z 33005KT 20/07 A2994 RMK A01 T01980074  RH  045%=      5-min Rain = 0
KSB1 190313Z 33005KT 20/07 A2994 RMK A01 T01970074  RH  045%=      5-min Rain = 0
KSB1 190314Z 32005KT 20/07 A2994 RMK A01 T01960073  RH  045%=      5-min Rain = 0
KSB1 190315Z 32005KT 20/07 A2994 RMK A01 T01970072  RH  044%=      5-min Rain = 0
KSB1 190316Z 32006KT 20/07 A2994 RMK A01 T01980071  RH  044%=      5-min Rain = 0
KSB1 190317Z 32006KT 20/07 A2994 RMK A01 T01990071  RH  043%=      5-min Rain = 0
KSB1 190318Z 32006KT 20/07 A2994 RMK A01 T02000071  RH  043%=      5-min Rain = 0
KSB1 190319Z 32006KT 20/07 A2994 RMK A01 T02000072  RH  043%=      5-min Rain = 0
KSB1 190320Z 32006KT 20/07 A2994 RMK A01 T02000072  RH  043%=      5-min Rain = 0
KSB1 190321Z 31006KT 20/07 A2994 RMK A01 T01990073  RH  044%=      5-min Rain = 0
KSB1 190322Z 31007KT 20/07 A2994 RMK A01 T01980073  RH  044%=      5-min Rain = 0
KSB1 190323Z 30006KT 20/07 A2994 RMK A01 T01980073  RH  044%=      5-min Rain = 0
KSB1 190324Z 30007KT 20/07 A2994 RMK A01 T01980073  RH  044%=      5-min Rain = 0
KSB1 190325Z 30008KT 20/07 A2994 RMK A01 T01990072  RH  044%=      5-min Rain = 0
KSB1 190326Z 30008KT 20/07 A2994 RMK A01 T01990071  RH  043%=      5-min Rain = 0
KSB1 190327Z 30009KT 20/07 A2994 RMK A01 T02010071  RH  043%=      5-min Rain = 0
KSB1 190328Z 30009KT 20/07 A2994 RMK A01 T02020071  RH  043%=      5-min Rain = 0
KSB1 190329Z 30008KT 20/07 A2994 RMK A01 T02030071  RH  042%=      5-min Rain = 0
KSB1 190330Z 30009KT 20/07 A2994 RMK A01 T02030071  RH  042%=      5-min Rain = 0
KSB1 190331Z 31009KT 20/07 A2994 RMK A01 T02030071  RH  042%=      5-min Rain = 0
KSB1 190332Z 30008KT 20/07 A2994 RMK A01 T02040071  RH  042%=      5-min Rain = 0
KSB1 190333Z 30009KT 20/07 A2994 RMK A01 T02040071  RH  042%=      5-min Rain = 0
KSB1 190334Z 30008KT 20/07 A2994 RMK A01 T02040072  RH  042%=      5-min Rain = 0
KSB1 190335Z 30008KT 20/07 A2994 RMK A01 T02030071  RH  042%=      5-min Rain = 0
KSB1 190336Z 29006KT 20/07 A2994 RMK A01 T02030072  RH  043%=      5-min Rain = 0
KSB1 190337Z 28006KT 20/08 A2994 RMK A01 T02020076  RH  044%=      5-min Rain = 0
KSB1 190338Z 28006KT 20/08 A2994 RMK A01 T01980076  RH  045%=      5-min Rain = 0
KSB1 190339Z 28006KT 20/08 A2994 RMK A01 T01950077  RH  046%=      5-min Rain = 0
KSB1 190340Z 27006KT 19/08 A2994 RMK A01 T01930077  RH  047%=      5-min Rain = 0
KSB1 190341Z 27007KT 19/08 A2994 RMK A01 T01910076  RH  047%=      5-min Rain = 0
KSB1 190342Z 27007KT 19/08 A2994 RMK A01 T01900076  RH  047%=      5-min Rain = 0
KSB1 190343Z 27007KT 19/08 A2994 RMK A01 T01900076  RH  048%=      5-min Rain = 0
KSB1 190344Z 28007KT 19/08 A2995 RMK A01 T01890076  RH  048%=      5-min Rain = 0
KSB1 190345Z 28007KT 19/08 A2995 RMK A01 T01890076  RH  048%=      5-min Rain = 0
KSB1 190346Z 28006KT 19/08 A2995 RMK A01 T01890076  RH  048%=      5-min Rain = 0
KSB1 190347Z 28006KT 19/08 A2995 RMK A01 T01890075  RH  048%=      5-min Rain = 0
KSB1 190348Z 29006KT 19/08 A2995 RMK A01 T01890075  RH  048%=      5-min Rain = 0
KSB1 190349Z 28006KT 19/07 A2995 RMK A01 T01890074  RH  047%=      5-min Rain = 0
KSB1 190350Z 28006KT 19/07 A2994 RMK A01 T01900074  RH  047%=      5-min Rain = 0
KSB1 190351Z 29005KT 19/07 A2994 RMK A01 T01900074  RH  047%=      5-min Rain = 0
KSB1 190352Z 28005KT 19/07 A2994 RMK A01 T01910074  RH  047%=      5-min Rain = 0
KSB1 190353Z 29005KT 19/07 A2995 RMK A01 T01910073  RH  046%=      5-min Rain = 0
KSB1 190354Z 29004KT 19/07 A2995 RMK A01 T01910074  RH  046%=      5-min Rain = 0
KSB1 190355Z 29005KT 19/07 A2995 RMK A01 T01910074  RH  047%=      5-min Rain = 0
KSB1 190356Z 29004KT 19/07 A2995 RMK A01 T01910074  RH  047%=      5-min Rain = 0
KSB1 190357Z 30004KT 19/07 A2995 RMK A01 T01910074  RH  047%=      5-min Rain = 0
KSB1 190358Z 30005KT 19/07 A2995 RMK A01 T01910074  RH  046%=      5-min Rain = 0
KSB1 190359Z 29005KT 19/07 A2995 RMK A01 T01920074  RH  046%=      5-min Rain = 0
KSB1 190400Z 30005KT 19/07 A2995 RMK A01 T01920073  RH  046%=      5-min Rain = 0
KSB1 190401Z 30005KT 19/07 A2995 RMK A01 T01920073  RH  046%=      5-min Rain = 0
KSB1 190402Z 32006KT 19/07 A2995 RMK A01 T01940072  RH  045%=      5-min Rain = 0
KSB1 190403Z 31005KT 20/07 A2995 RMK A01 T01950071  RH  044%=      5-min Rain = 0
KSB1 190404Z 31008KT 20/07 A2995 RMK A01 T01970071  RH  044%=      5-min Rain = 0
KSB1 190405Z 31008KT 20/07 A2995 RMK A01 T01980069  RH  043%=      5-min Rain = 0
KSB1 190406Z 31008KT 20/07 A2995 RMK A01 T02000069  RH  043%=      5-min Rain = 0
KSB1 190407Z 31008KT 20/07 A2995 RMK A01 T02010069  RH  042%=      5-min Rain = 0
KSB1 190408Z 31008KT 20/07 A2995 RMK A01 T02010070  RH  043%=      5-min Rain = 0
KSB1 190409Z 31008KT 20/07 A2995 RMK A01 T02000069  RH  043%=      5-min Rain = 0
KSB1 190410Z 31007KT 20/07 A2995 RMK A01 T02000070  RH  043%=      5-min Rain = 0
KSB1 190411Z 31007KT 20/07 A2995 RMK A01 T02000070  RH  043%=      5-min Rain = 0
KSB1 190412Z 31008KT 20/07 A2995 RMK A01 T02000071  RH  043%=      5-min Rain = 0
KSB1 190413Z 31008KT 20/07 A2995 RMK A01 T01990071  RH  043%=      5-min Rain = 0
KSB1 190414Z 31008KT 20/07 A2995 RMK A01 T01990071  RH  043%=      5-min Rain = 0
KSB1 190415Z 31008KT 20/07 A2995 RMK A01 T01980071  RH  044%=      5-min Rain = 0
KSB1 190416Z 31008KT 20/07 A2995 RMK A01 T01980071  RH  044%=      5-min Rain = 0
KSB1 190417Z 31009KT 20/07 A2995 RMK A01 T01980070  RH  044%=      5-min Rain = 0
KSB1 190418Z 31010KT 20/07 A2995 RMK A01 T01980070  RH  043%=      5-min Rain = 0
KSB1 190419Z 31008KT 20/07 A2995 RMK A01 T01990070  RH  043%=      5-min Rain = 0
KSB1 190420Z 31009KT 20/07 A2995 RMK A01 T01990070  RH  043%=      5-min Rain = 0
KSB1 190421Z 31010KT 20/07 A2995 RMK A01 T01990070  RH  043%=      5-min Rain = 0
KSB1 190422Z 31010KT 20/07 A2995 RMK A01 T01990069  RH  043%=      5-min Rain = 0
KSB1 190423Z 31010KT 20/07 A2995 RMK A01 T02000069  RH  043%=      5-min Rain = 0
KSB1 190424Z 31010KT 20/07 A2995 RMK A01 T02000070  RH  043%=      5-min Rain = 0
KSB1 190425Z 31011KT 20/07 A2995 RMK A01 T02000070  RH  043%=      5-min Rain = 0
KSB1 190426Z 31013KT 20/07 A2995 RMK A01 T02000070  RH  043%=      5-min Rain = 0
KSB1 190427Z 31011KT 20/07 A2995 RMK A01 T02010069  RH  042%=      5-min Rain = 0
KSB1 190428Z 31012KT 20/07 A2995 RMK A01 T02010069  RH  042%=      5-min Rain = 0
KSB1 190429Z 30012KT 20/07 A2995 RMK A01 T02010069  RH  042%=      5-min Rain = 0
KSB1 190430Z 31011KT 20/07 A2995 RMK A01 T02020069  RH  042%=      5-min Rain = 0
KSB1 190431Z 31011KT 20/07 A2995 RMK A01 T02010069  RH  042%=      5-min Rain = 0
KSB1 190432Z 30010KT 20/07 A2995 RMK A01 T02020069  RH  042%=      5-min Rain = 0
KSB1 190433Z 31010KT 20/07 A2996 RMK A01 T02010070  RH  042%=      5-min Rain = 0
KSB1 190434Z 31012KT 20/07 A2995 RMK A01 T02000070  RH  043%=      5-min Rain = 0
KSB1 190435Z 30011KT 20/07 A2996 RMK A01 T02000070  RH  043%=      5-min Rain = 0
KSB1 190436Z 31010KT 20/07 A2996 RMK A01 T02000070  RH  043%=      5-min Rain = 0
KSB1 190437Z 30009KT 20/07 A2996 RMK A01 T02000070  RH  043%=      5-min Rain = 0
KSB1 190438Z 30009KT 20/07 A2996 RMK A01 T01990070  RH  043%=      5-min Rain = 0
KSB1 190439Z 30009KT 20/07 A2996 RMK A01 T01990070  RH  043%=      5-min Rain = 0
KSB1 190440Z 30008KT 20/07 A2996 RMK A01 T01990070  RH  043%=      5-min Rain = 0
KSB1 190441Z 31008KT 20/07 A2996 RMK A01 T01990071  RH  043%=      5-min Rain = 0
KSB1 190442Z 30009KT 20/07 A2996 RMK A01 T01980071  RH  044%=      5-min Rain = 0
KSB1 190443Z 30009KT 20/07 A2996 RMK A01 T01970070  RH  044%=      5-min Rain = 0
KSB1 190444Z 30009KT 20/07 A2996 RMK A01 T01980070  RH  043%=      5-min Rain = 0
KSB1 190445Z 30008KT 20/07 A2996 RMK A01 T01980071  RH  044%=      5-min Rain = 0
KSB1 190446Z 30009KT 20/07 A2996 RMK A01 T01980071  RH  044%=      5-min Rain = 0
KSB1 190447Z 30008KT 20/07 A2996 RMK A01 T01970071  RH  044%=      5-min Rain = 0
KSB1 190448Z 30008KT 20/07 A2996 RMK A01 T01970071  RH  044%=      5-min Rain = 0
KSB1 190449Z 30009KT 20/07 A2996 RMK A01 T01960071  RH  044%=      5-min Rain = 0
KSB1 190450Z 29008KT 20/07 A2996 RMK A01 T01960071  RH  044%=      5-min Rain = 0
KSB1 190451Z 30008KT 20/07 A2996 RMK A01 T01960071  RH  044%=      5-min Rain = 0
KSB1 190452Z 29007KT 20/07 A2996 RMK A01 T01950071  RH  044%=      5-min Rain = 0
KSB1 190453Z 30008KT 19/07 A2996 RMK A01 T01940071  RH  045%=      5-min Rain = 0
KSB1 190454Z 30008KT 19/07 A2996 RMK A01 T01940071  RH  045%=      5-min Rain = 0
KSB1 190455Z 30007KT 19/07 A2996 RMK A01 T01940071  RH  045%=      5-min Rain = 0
KSB1 190456Z 30007KT 19/07 A2996 RMK A01 T01930071  RH  045%=      5-min Rain = 0
KSB1 190457Z 30008KT 19/07 A2996 RMK A01 T01930071  RH  045%=      5-min Rain = 0
KSB1 190458Z 30008KT 19/07 A2996 RMK A01 T01930071  RH  045%=      5-min Rain = 0
KSB1 190459Z 30008KT 19/07 A2996 RMK A01 T01930072  RH  045%=      5-min Rain = 0

Page generated in 0.141 seconds.